Time,TemperatureF,DewpointF,PressureIn,WindDirection,WindDirectionDegrees,WindSpeedMPH,WindSpeedGustMPH,Humidity,HourlyPrecipIn,Conditions,Clouds,dailyrainin,SoftwareType,DateUTC
2013-01-11 00:02:00,35.2,27.4,30.28,SW,225,2.9,2.9,73,0.00,CLR,,0.00,WeatherDisplay:10.37,2013-01-11 05:02:00,
2013-01-11 00:03:00,35.2,27.4,30.28,SSW,202,3.5,3.5,73,0.00,CLR,,0.00,WeatherDisplay:10.37,2013-01-11 05:03:00,
2013-01-11 00:07:00,35.2,27.4,30.28,SW,225,2.4,2.4,73,0.00,CLR,,0.00,WeatherDisplay:10.37,2013-01-11 05:07:00,
2013-01-11 00:08:00,35.2,27.4,30.28,SSW,202,3.3,3.3,73,0.00,CLR,,0.00,WeatherDisplay:10.37,2013-01-11 05:08:00,
2013-01-11 00:12:00,35.2,27.4,30.25,SSW,202,2.4,2.6,73,0.00,CLR,,0.00,WeatherDisplay:10.37,2013-01-11 05:12:00,
2013-01-11 00:13:00,35.2,27.4,30.25,SSW,202,4.6,4.6,73,0.00,CLR,,0.00,WeatherDisplay:10.37,2013-01-11 05:13:00,
2013-01-11 00:17:00,35.2,27.4,30.25,SW,225,4.6,4.6,73,0.00,CLR,,0.00,WeatherDisplay:10.37,2013-01-11 05:17:00,
2013-01-11 00:18:00,35.2,27.4,30.25,SW,225,4.6,4.6,73,0.00,CLR,,0.00,WeatherDisplay:10.37,2013-01-11 05:18:00,
2013-01-11 00:22:00,35.1,27.3,30.25,SW,225,3.5,3.5,73,0.00,CLR,,0.00,WeatherDisplay:10.37,2013-01-11 05:22:00,
2013-01-11 00:23:00,35.1,27.3,30.25,SSW,202,3.6,3.6,73,0.00,CLR,,0.00,WeatherDisplay:10.37,2013-01-11 05:23:00,
2013-01-11 00:24:00,35.1,27.3,30.25,WSW,248,2.9,2.9,73,0.00,CLR,,0.00,WeatherDisplay:10.37,2013-01-11 05:24:00,
2013-01-11 00:28:00,35.2,27.4,30.28,SSW,202,4.6,4.6,73,0.00,CLR,,0.00,WeatherDisplay:10.37,2013-01-11 05:28:00,
2013-01-11 00:29:00,35.2,27.4,30.28,SSW,202,4.6,4.6,73,0.00,CLR,,0.00,WeatherDisplay:10.37,2013-01-11 05:29:00,
2013-01-11 00:33:00,35.2,27.4,30.28,SSW,202,4.6,4.6,73,0.00,CLR,,0.00,WeatherDisplay:10.37,2013-01-11 05:33:00,
2013-01-11 00:34:00,35.2,27.1,30.28,SSW,202,5.8,5.8,72,0.00,CLR,,0.00,WeatherDisplay:10.37,2013-01-11 05:34:00,
2013-01-11 00:39:00,35.4,27.3,30.28,SSW,202,5.8,5.8,72,0.00,CLR,,0.00,WeatherDisplay:10.37,2013-01-11 05:39:00,
2013-01-11 00:44:00,35.4,27.3,30.28,South,180,4.6,4.6,72,0.00,CLR,,0.00,WeatherDisplay:10.37,2013-01-11 05:44:00,
2013-01-11 00:49:00,35.4,27.3,30.28,SSW,202,4.9,4.9,72,0.00,CLR,,0.00,WeatherDisplay:10.37,2013-01-11 05:49:00,
2013-01-11 00:54:00,35.4,26.9,30.28,SW,225,5.8,5.8,71,0.00,CLR,,0.00,WeatherDisplay:10.37,2013-01-11 05:54:00,
2013-01-11 00:59:00,35.4,26.9,30.25,SSW,202,5.8,5.8,71,0.00,CLR,,0.00,WeatherDisplay:10.37,2013-01-11 05:59:00,
2013-01-11 01:04:00,35.4,27.3,30.25,SSW,202,5.8,5.8,72,0.00,CLR,,0.00,WeatherDisplay:10.37,2013-01-11 06:04:00,
2013-01-11 01:05:00,35.4,27.3,30.25,WNW,292,5.8,5.8,72,0.00,CLR,,0.00,WeatherDisplay:10.37,2013-01-11 06:05:00,
2013-01-11 01:09:00,35.2,26.8,30.25,SW,225,4.6,4.6,71,0.00,CLR,,0.00,WeatherDisplay:10.37,2013-01-11 06:09:00,
2013-01-11 01:10:00,35.2,26.8,30.25,SSW,202,5.9,5.9,71,0.00,CLR,,0.00,WeatherDisplay:10.37,2013-01-11 06:10:00,
2013-01-11 01:15:00,35.2,26.8,30.25,SSW,202,6.9,6.9,71,0.00,CLR,,0.00,WeatherDisplay:10.37,2013-01-11 06:15:00,
2013-01-11 01:20:00,35.1,26.6,30.25,SSW,202,3.5,3.5,71,0.00,CLR,,0.00,WeatherDisplay:10.37,2013-01-11 06:20:00,
2013-01-11 01:25:00,35.1,26.9,30.25,WSW,248,6.0,6.0,72,0.00,CLR,,0.00,WeatherDisplay:10.37,2013-01-11 06:25:00,
2013-01-11 01:30:00,35.1,26.9,30.25,South,180,4.6,4.6,72,0.00,CLR,,0.00,WeatherDisplay:10.37,2013-01-11 06:30:00,
2013-01-11 01:35:00,34.9,26.8,30.25,SW,225,4.6,4.6,72,0.00,CLR,,0.00,WeatherDisplay:10.37,2013-01-11 06:35:00,
2013-01-11 01:40:00,34.9,26.8,30.25,SSW,202,3.5,3.5,72,0.00,CLR,,0.00,WeatherDisplay:10.37,2013-01-11 06:40:00,
2013-01-11 01:41:00,34.9,26.8,30.22,WSW,248,3.5,3.5,72,0.00,CLR,,0.00,WeatherDisplay:10.37,2013-01-11 06:41:00,
2013-01-11 01:45:00,34.9,26.8,30.22,SSW,202,4.6,4.6,72,0.00,CLR,,0.00,WeatherDisplay:10.37,2013-01-11 06:45:00,
2013-01-11 01:46:00,34.9,26.8,30.22,SSW,202,3.5,3.5,72,0.00,CLR,,0.00,WeatherDisplay:10.37,2013-01-11 06:46:00,
2013-01-11 01:50:00,34.9,26.8,30.22,SSW,202,4.6,4.6,72,0.00,CLR,,0.00,WeatherDisplay:10.37,2013-01-11 06:50:00,
2013-01-11 01:51:00,34.9,26.8,30.22,SSW,202,5.8,5.8,72,0.00,CLR,,0.00,WeatherDisplay:10.37,2013-01-11 06:51:00,
2013-01-11 01:55:00,34.7,26.6,30.22,WSW,248,3.5,3.5,72,0.00,CLR,,0.00,WeatherDisplay:10.37,2013-01-11 06:55:00,
2013-01-11 01:56:00,34.7,26.6,30.22,SSW,202,3.8,3.8,72,0.00,CLR,,0.00,WeatherDisplay:10.37,2013-01-11 06:56:00,
2013-01-11 02:00:00,34.7,26.6,30.22,SW,225,3.5,3.5,72,0.00,CLR,,0.00,WeatherDisplay:10.37,2013-01-11 07:00:00,
2013-01-11 02:01:00,34.7,26.6,30.22,SSW,202,3.5,3.5,72,0.00,CLR,,0.00,WeatherDisplay:10.37,2013-01-11 07:01:00,
2013-01-11 02:05:00,34.7,26.6,30.22,WSW,248,5.8,5.8,72,0.00,CLR,,0.00,WeatherDisplay:10.37,2013-01-11 07:05:00,
2013-01-11 02:06:00,34.7,26.6,30.22,SSW,202,4.6,4.6,72,0.00,CLR,,0.00,WeatherDisplay:10.37,2013-01-11 07:06:00,
2013-01-11 02:10:00,34.7,26.6,30.22,SW,225,3.5,3.5,72,0.00,CLR,,0.00,WeatherDisplay:10.37,2013-01-11 07:10:00,
2013-01-11 02:11:00,34.7,26.6,30.22,SW,225,3.5,3.5,72,0.00,CLR,,0.00,WeatherDisplay:10.37,2013-01-11 07:11:00,
2013-01-11 02:15:00,34.5,26.4,30.22,South,180,3.1,3.1,72,0.00,CLR,,0.00,WeatherDisplay:10.37,2013-01-11 07:15:00,
2013-01-11 02:16:00,34.5,26.4,30.22,SW,225,3.5,3.5,72,0.00,CLR,,0.00,WeatherDisplay:10.37,2013-01-11 07:16:00,
2013-01-11 02:17:00,34.5,26.8,30.22,SSW,202,3.5,3.5,73,0.00,CLR,,0.00,WeatherDisplay:10.37,2013-01-11 07:17:00,
2013-01-11 02:21:00,34.5,26.8,30.22,SSW,202,3.6,3.6,73,0.00,CLR,,0.00,WeatherDisplay:10.37,2013-01-11 07:21:00,
2013-01-11 02:22:00,34.5,26.8,30.22,West,270,3.5,3.5,73,0.00,CLR,,0.00,WeatherDisplay:10.37,2013-01-11 07:22:00,
2013-01-11 02:26:00,34.5,26.8,30.22,SW,225,3.5,3.5,73,0.00,CLR,,0.00,WeatherDisplay:10.37,2013-01-11 07:26:00,
2013-01-11 02:27:00,34.5,26.8,30.22,SSW,202,5.8,5.8,73,0.00,CLR,,0.00,WeatherDisplay:10.37,2013-01-11 07:27:00,
2013-01-11 02:28:00,34.5,26.8,30.22,SW,225,5.8,5.8,73,0.00,CLR,,0.00,WeatherDisplay:10.37,2013-01-11 07:28:00,
2013-01-11 02:31:00,34.5,26.8,30.22,SW,225,3.5,3.5,73,0.00,CLR,,0.00,WeatherDisplay:10.37,2013-01-11 07:31:00,
2013-01-11 02:32:00,34.5,26.8,30.22,SW,225,3.5,3.5,73,0.00,CLR,,0.00,WeatherDisplay:10.37,2013-01-11 07:32:00,
2013-01-11 02:33:00,34.5,26.8,30.22,South,180,3.5,3.5,73,0.00,CLR,,0.00,WeatherDisplay:10.37,2013-01-11 07:33:00,
2013-01-11 02:36:00,34.5,26.8,30.22,SW,225,3.5,3.5,73,0.00,CLR,,0.00,WeatherDisplay:10.37,2013-01-11 07:36:00,
2013-01-11 02:37:00,34.5,26.8,30.22,SSW,202,3.1,3.1,73,0.00,CLR,,0.00,WeatherDisplay:10.37,2013-01-11 07:37:00,
2013-01-11 02:38:00,34.5,26.8,30.22,SSW,202,3.1,3.1,73,0.00,CLR,,0.00,WeatherDisplay:10.37,2013-01-11 07:38:00,
2013-01-11 02:41:00,34.5,26.8,30.19,SSW,202,2.6,2.6,73,0.00,CLR,,0.00,WeatherDisplay:10.37,2013-01-11 07:41:00,
2013-01-11 02:42:00,34.5,26.8,30.19,South,180,2.3,2.6,73,0.00,CLR,,0.00,WeatherDisplay:10.37,2013-01-11 07:42:00,
2013-01-11 02:43:00,34.5,26.8,30.19,NNW,338,2.3,2.3,73,0.00,CLR,,0.00,WeatherDisplay:10.37,2013-01-11 07:43:00,
2013-01-11 02:46:00,34.5,26.8,30.19,WSW,248,3.5,3.5,73,0.00,CLR,,0.00,WeatherDisplay:10.37,2013-01-11 07:46:00,
2013-01-11 02:47:00,34.5,26.8,30.19,SSW,202,3.5,3.5,73,0.00,CLR,,0.00,WeatherDisplay:10.37,2013-01-11 07:47:00,
2013-01-11 02:48:00,34.5,26.8,30.19,SSW,202,2.3,2.3,73,0.00,CLR,,0.00,WeatherDisplay:10.37,2013-01-11 07:48:00,
2013-01-11 02:51:00,34.5,26.8,30.19,SW,225,2.4,2.4,73,0.00,CLR,,0.00,WeatherDisplay:10.37,2013-01-11 07:51:00,
2013-01-11 02:52:00,34.5,26.8,30.19,SSW,202,3.5,3.5,73,0.00,CLR,,0.00,WeatherDisplay:10.37,2013-01-11 07:52:00,
2013-01-11 02:53:00,34.5,26.8,30.19,SW,225,2.3,2.3,73,0.00,CLR,,0.00,WeatherDisplay:10.37,2013-01-11 07:53:00,
2013-01-11 02:56:00,34.5,26.8,30.19,SW,225,3.5,3.5,73,0.00,CLR,,0.00,WeatherDisplay:10.37,2013-01-11 07:56:00,
2013-01-11 02:57:00,34.5,26.8,30.19,SSW,202,3.6,3.6,73,0.00,CLR,,0.00,WeatherDisplay:10.37,2013-01-11 07:57:00,
2013-01-11 02:58:00,34.5,26.8,30.19,SSW,202,3.5,3.5,73,0.00,CLR,,0.00,WeatherDisplay:10.37,2013-01-11 07:58:00,
2013-01-11 03:01:00,34.5,26.4,30.19,SSW,202,3.5,3.5,72,0.00,CLR,,0.00,WeatherDisplay:10.37,2013-01-11 08:01:00,
2013-01-11 03:03:00,34.5,26.4,30.19,SSE,158,3.5,3.5,72,0.00,CLR,,0.00,WeatherDisplay:10.37,2013-01-11 08:03:00,
2013-01-11 03:07:00,34.5,26.4,30.19,SSE,158,3.5,3.5,72,0.00,CLR,,0.00,WeatherDisplay:10.37,2013-01-11 08:07:00,
2013-01-11 03:08:00,34.5,26.4,30.19,SSE,158,2.4,0.0,72,0.00,CLR,,0.00,WeatherDisplay:10.37,2013-01-11 08:08:00,
2013-01-11 03:12:00,34.5,26.8,30.16,WSW,248,3.5,3.5,73,0.00,CLR,,0.00,WeatherDisplay:10.37,2013-01-11 08:12:00,
2013-01-11 03:13:00,34.5,26.8,30.16,WSW,248,3.5,3.5,73,0.00,CLR,,0.00,WeatherDisplay:10.37,2013-01-11 08:13:00,
2013-01-11 03:17:00,34.7,26.6,30.16,SW,225,4.6,4.6,72,0.00,CLR,,0.00,WeatherDisplay:10.37,2013-01-11 08:17:00,
2013-01-11 03:18:00,34.7,26.6,30.16,SSW,202,3.5,3.5,72,0.00,CLR,,0.00,WeatherDisplay:10.37,2013-01-11 08:18:00,
2013-01-11 03:19:00,34.7,26.6,30.16,SSE,158,4.0,4.0,72,0.00,CLR,,0.00,WeatherDisplay:10.37,2013-01-11 08:19:00,
2013-01-11 03:22:00,34.7,26.6,30.16,SW,225,3.6,3.6,72,0.00,CLR,,0.00,WeatherDisplay:10.37,2013-01-11 08:22:00,
2013-01-11 03:23:00,34.9,26.8,30.16,SSE,158,5.8,5.8,72,0.00,CLR,,0.00,WeatherDisplay:10.37,2013-01-11 08:23:00,
2013-01-11 03:24:00,34.9,26.8,30.16,SSW,202,4.6,4.6,72,0.00,CLR,,0.00,WeatherDisplay:10.37,2013-01-11 08:24:00,
2013-01-11 03:27:00,34.9,26.4,30.16,SSW,202,5.8,5.8,71,0.00,CLR,,0.00,WeatherDisplay:10.37,2013-01-11 08:27:00,
2013-01-11 03:28:00,34.9,26.4,30.16,WSW,248,4.6,4.6,71,0.00,CLR,,0.00,WeatherDisplay:10.37,2013-01-11 08:28:00,
2013-01-11 03:29:00,35.1,26.3,30.16,WSW,248,4.6,4.6,70,0.00,CLR,,0.00,WeatherDisplay:10.37,2013-01-11 08:29:00,
2013-01-11 03:33:00,35.1,26.6,30.16,SW,225,3.5,3.5,71,0.00,CLR,,0.00,WeatherDisplay:10.37,2013-01-11 08:33:00,
2013-01-11 03:34:00,35.1,26.6,30.16,SSW,202,3.5,3.5,71,0.00,CLR,,0.00,WeatherDisplay:10.37,2013-01-11 08:34:00,
2013-01-11 03:38:00,34.9,26.4,30.16,South,180,3.5,3.5,71,0.00,CLR,,0.00,WeatherDisplay:10.37,2013-01-11 08:38:00,
2013-01-11 03:39:00,34.9,26.4,30.16,SW,225,4.6,4.6,71,0.00,CLR,,0.00,WeatherDisplay:10.37,2013-01-11 08:39:00,
2013-01-11 03:44:00,35.1,26.3,30.16,WSW,248,2.3,2.3,70,0.00,CLR,,0.00,WeatherDisplay:10.37,2013-01-11 08:44:00,
2013-01-11 03:49:00,35.1,26.3,30.16,SW,225,3.5,3.5,70,0.00,CLR,,0.00,WeatherDisplay:10.37,2013-01-11 08:49:00,
2013-01-11 03:54:00,35.1,26.3,30.16,SW,225,4.9,4.9,70,0.00,CLR,,0.00,WeatherDisplay:10.37,2013-01-11 08:54:00,
2013-01-11 03:59:00,35.1,25.9,30.13,SSE,158,3.5,3.5,69,0.00,CLR,,0.00,WeatherDisplay:10.37,2013-01-11 08:59:00,
2013-01-11 04:00:00,35.1,25.9,30.13,SSW,202,3.5,3.5,69,0.00,CLR,,0.00,WeatherDisplay:10.37,2013-01-11 09:00:00,
2013-01-11 04:04:00,35.1,25.9,30.13,SSW,202,3.5,3.5,69,0.00,CLR,,0.00,WeatherDisplay:10.37,2013-01-11 09:04:00,
2013-01-11 04:05:00,35.1,25.9,30.13,SW,225,2.4,2.4,69,0.00,CLR,,0.00,WeatherDisplay:10.37,2013-01-11 09:05:00,
2013-01-11 04:10:00,35.2,26.1,30.13,SSE,158,3.5,3.5,69,0.00,CLR,,0.00,WeatherDisplay:10.37,2013-01-11 09:10:00,
2013-01-11 04:15:00,35.2,26.1,30.13,West,270,1.1,0.0,69,0.00,CLR,,0.00,WeatherDisplay:10.37,2013-01-11 09:15:00,
2013-01-11 04:20:00,35.4,25.9,30.13,SSE,158,3.5,3.5,68,0.00,CLR,,0.00,WeatherDisplay:10.37,2013-01-11 09:20:00,
2013-01-11 04:25:00,35.4,25.9,30.13,WSW,248,2.3,2.3,68,0.00,CLR,,0.00,WeatherDisplay:10.37,2013-01-11 09:25:00,
2013-01-11 04:26:00,35.4,25.9,30.10,WNW,292,2.3,2.3,68,0.00,CLR,,0.00,WeatherDisplay:10.37,2013-01-11 09:26:00,
2013-01-11 04:30:00,35.4,25.9,30.10,WSW,248,3.5,3.5,68,0.00,CLR,,0.00,WeatherDisplay:10.37,2013-01-11 09:30:00,
2013-01-11 04:31:00,35.4,25.9,30.10,SSE,158,2.3,2.3,68,0.00,CLR,,0.00,WeatherDisplay:10.37,2013-01-11 09:31:00,
2013-01-11 04:35:00,35.6,25.7,30.10,North,0,2.3,2.3,67,0.00,CLR,,0.00,WeatherDisplay:10.37,2013-01-11 09:35:00,
2013-01-11 04:36:00,35.6,25.7,30.10,South,180,2.3,2.3,67,0.00,CLR,,0.00,WeatherDisplay:10.37,2013-01-11 09:36:00,
2013-01-11 04:40:00,35.8,25.5,30.07,SSW,202,3.5,3.5,66,0.00,CLR,,0.00,WeatherDisplay:10.37,2013-01-11 09:40:00,
2013-01-11 04:41:00,35.8,25.2,30.07,SW,225,3.5,3.5,65,0.00,CLR,,0.00,WeatherDisplay:10.37,2013-01-11 09:41:00,
2013-01-11 04:45:00,36.0,25.3,30.07,WSW,248,2.3,2.3,65,0.00,CLR,,0.00,WeatherDisplay:10.37,2013-01-11 09:45:00,
2013-01-11 04:46:00,36.0,25.3,30.07,SSW,202,3.5,3.5,65,0.00,CLR,,0.00,WeatherDisplay:10.37,2013-01-11 09:46:00,
2013-01-11 04:50:00,36.1,25.1,30.07,WSW,248,3.5,3.5,64,0.00,CLR,,0.00,WeatherDisplay:10.37,2013-01-11 09:50:00,
2013-01-11 04:51:00,36.1,25.1,30.07,West,270,3.5,3.5,64,0.00,CLR,,0.00,WeatherDisplay:10.37,2013-01-11 09:51:00,
2013-01-11 04:52:00,36.1,25.1,30.07,WSW,248,3.5,3.5,64,0.00,CLR,,0.00,WeatherDisplay:10.37,2013-01-11 09:52:00,
2013-01-11 04:56:00,36.1,25.1,30.07,WSW,248,2.3,2.3,64,0.00,CLR,,0.00,WeatherDisplay:10.37,2013-01-11 09:56:00,
2013-01-11 04:57:00,36.1,25.1,30.07,SSW,202,2.3,2.3,64,0.00,CLR,,0.00,WeatherDisplay:10.37,2013-01-11 09:57:00,
2013-01-11 05:01:00,36.3,24.9,30.07,WNW,292,3.5,3.5,63,0.00,CLR,,0.00,WeatherDisplay:10.37,2013-01-11 10:01:00,
2013-01-11 05:02:00,36.3,24.9,30.07,SSW,202,2.4,2.4,63,0.00,CLR,,0.00,WeatherDisplay:10.37,2013-01-11 10:02:00,
2013-01-11 05:06:00,36.3,24.9,30.07,SSW,202,2.9,2.9,63,0.00,CLR,,0.00,WeatherDisplay:10.37,2013-01-11 10:06:00,
2013-01-11 05:07:00,36.3,24.9,30.07,WSW,248,2.3,2.3,63,0.00,CLR,,0.00,WeatherDisplay:10.37,2013-01-11 10:07:00,
2013-01-11 05:11:00,36.3,24.9,30.10,West,270,4.6,4.6,63,0.00,CLR,,0.00,WeatherDisplay:10.37,2013-01-11 10:11:00,
2013-01-11 05:12:00,36.3,24.9,30.10,WSW,248,4.6,4.6,63,0.00,CLR,,0.00,WeatherDisplay:10.37,2013-01-11 10:12:00,
2013-01-11 05:16:00,36.5,24.7,30.10,SSW,202,2.3,2.4,62,0.00,CLR,,0.00,WeatherDisplay:10.37,2013-01-11 10:16:00,
2013-01-11 05:17:00,36.5,24.7,30.10,SSE,158,2.3,2.3,62,0.00,CLR,,0.00,WeatherDisplay:10.37,2013-01-11 10:17:00,
2013-01-11 05:21:00,36.5,24.7,30.10,SW,225,2.3,2.3,62,0.00,CLR,,0.00,WeatherDisplay:10.37,2013-01-11 10:21:00,
2013-01-11 05:22:00,36.5,24.7,30.10,SW,225,2.3,2.3,62,0.00,CLR,,0.00,WeatherDisplay:10.37,2013-01-11 10:22:00,
2013-01-11 05:26:00,36.5,24.7,30.10,West,270,2.3,2.3,62,0.00,CLR,,0.00,WeatherDisplay:10.37,2013-01-11 10:26:00,
2013-01-11 05:27:00,36.5,24.7,30.10,SSW,202,2.4,2.4,62,0.00,CLR,,0.00,WeatherDisplay:10.37,2013-01-11 10:27:00,
2013-01-11 05:31:00,36.7,25.3,30.10,WSW,248,4.6,4.6,63,0.00,CLR,,0.00,WeatherDisplay:10.37,2013-01-11 10:31:00,
2013-01-11 05:32:00,36.7,25.3,30.10,WSW,248,2.3,2.3,63,0.00,CLR,,0.00,WeatherDisplay:10.37,2013-01-11 10:32:00,
2013-01-11 05:33:00,36.7,25.3,30.10,NW,315,2.4,2.4,63,0.00,CLR,,0.00,WeatherDisplay:10.37,2013-01-11 10:33:00,
2013-01-11 05:36:00,36.5,25.5,30.10,WSW,248,4.6,4.6,64,0.00,CLR,,0.00,WeatherDisplay:10.37,2013-01-11 10:36:00,
2013-01-11 05:37:00,36.5,25.5,30.10,WSW,248,3.5,3.5,64,0.00,CLR,,0.00,WeatherDisplay:10.37,2013-01-11 10:37:00,
2013-01-11 05:39:00,36.7,25.6,30.10,WSW,248,4.0,4.0,64,0.00,CLR,,0.00,WeatherDisplay:10.37,2013-01-11 10:39:00,
2013-01-11 05:41:00,36.7,25.3,30.10,SSW,202,3.5,3.5,63,0.00,CLR,,0.00,WeatherDisplay:10.37,2013-01-11 10:41:00,
2013-01-11 05:42:00,36.7,25.6,30.10,WSW,248,2.3,2.3,64,0.00,CLR,,0.00,WeatherDisplay:10.37,2013-01-11 10:42:00,
2013-01-11 05:43:00,36.7,25.6,30.10,WNW,292,2.3,2.3,64,0.00,CLR,,0.00,WeatherDisplay:10.37,2013-01-11 10:43:00,
2013-01-11 05:44:00,36.7,25.6,30.10,West,270,2.6,2.6,64,0.00,CLR,,0.00,WeatherDisplay:10.37,2013-01-11 10:44:00,
2013-01-11 05:46:00,36.7,25.6,30.10,West,270,2.4,2.4,64,0.00,CLR,,0.00,WeatherDisplay:10.37,2013-01-11 10:46:00,
2013-01-11 05:48:00,36.7,25.6,30.10,WSW,248,5.8,5.8,64,0.00,CLR,,0.00,WeatherDisplay:10.37,2013-01-11 10:48:00,
2013-01-11 05:49:00,36.7,25.3,30.10,SSW,202,4.6,4.6,63,0.00,CLR,,0.00,WeatherDisplay:10.37,2013-01-11 10:49:00,
2013-01-11 05:52:00,36.7,25.3,30.10,WSW,248,2.4,2.4,63,0.00,CLR,,0.00,WeatherDisplay:10.37,2013-01-11 10:52:00,
2013-01-11 05:53:00,36.7,25.6,30.10,West,270,3.5,3.5,64,0.00,CLR,,0.00,WeatherDisplay:10.37,2013-01-11 10:53:00,
2013-01-11 05:54:00,36.7,25.6,30.10,WNW,292,3.5,3.5,64,0.00,CLR,,0.00,WeatherDisplay:10.37,2013-01-11 10:54:00,
2013-01-11 05:57:00,36.9,25.8,30.07,SSE,158,2.3,2.4,64,0.00,CLR,,0.00,WeatherDisplay:10.37,2013-01-11 10:57:00,
2013-01-11 05:58:00,36.7,25.6,30.07,West,270,2.3,2.3,64,0.00,CLR,,0.00,WeatherDisplay:10.37,2013-01-11 10:58:00,
2013-01-11 05:59:00,36.7,25.6,30.07,SSW,202,2.3,2.3,64,0.00,CLR,,0.00,WeatherDisplay:10.37,2013-01-11 10:59:00,
2013-01-11 06:02:00,36.7,25.6,30.07,West,270,2.3,2.3,64,0.00,CLR,,0.00,WeatherDisplay:10.37,2013-01-11 11:02:00,
2013-01-11 06:03:00,36.7,25.6,30.07,WSW,248,2.4,2.4,64,0.00,CLR,,0.00,WeatherDisplay:10.37,2013-01-11 11:03:00,
2013-01-11 06:04:00,36.7,25.6,30.07,SSE,158,2.3,2.3,64,0.00,CLR,,0.00,WeatherDisplay:10.37,2013-01-11 11:04:00,
2013-01-11 06:07:00,36.7,25.6,30.07,SSW,202,3.5,3.5,64,0.00,CLR,,0.00,WeatherDisplay:10.37,2013-01-11 11:07:00,
2013-01-11 06:08:00,36.7,25.6,30.07,SSW,202,2.9,2.9,64,0.00,CLR,,0.00,WeatherDisplay:10.37,2013-01-11 11:08:00,
2013-01-11 06:09:00,36.9,25.8,30.07,SSW,202,2.4,2.4,64,0.00,CLR,,0.00,WeatherDisplay:10.37,2013-01-11 11:09:00,
2013-01-11 06:12:00,36.9,25.4,30.01,SSE,158,2.3,2.3,63,0.00,CLR,,0.00,WeatherDisplay:10.37,2013-01-11 11:12:00,
2013-01-11 06:13:00,36.9,25.4,30.01,SW,225,2.3,2.3,63,0.00,CLR,,0.00,WeatherDisplay:10.37,2013-01-11 11:13:00,
2013-01-11 06:14:00,36.9,25.4,30.01,SSW,202,2.3,2.3,63,0.00,CLR,,0.00,WeatherDisplay:10.37,2013-01-11 11:14:00,
2013-01-11 06:15:00,36.9,25.4,30.01,SSW,202,2.9,2.9,63,0.00,CLR,,0.00,WeatherDisplay:10.37,2013-01-11 11:15:00,
2013-01-11 06:17:00,36.9,25.4,30.01,West,270,3.5,3.5,63,0.00,CLR,,0.00,WeatherDisplay:10.37,2013-01-11 11:17:00,
2013-01-11 06:18:00,36.9,25.4,30.01,SSE,158,3.5,3.5,63,0.00,CLR,,0.00,WeatherDisplay:10.37,2013-01-11 11:18:00,
2013-01-11 06:19:00,36.9,25.4,30.01,SW,225,2.3,2.3,63,0.00,CLR,,0.00,WeatherDisplay:10.37,2013-01-11 11:19:00,
2013-01-11 06:20:00,37.0,25.6,30.01,SSW,202,2.4,2.4,63,0.00,CLR,,0.00,WeatherDisplay:10.37,2013-01-11 11:20:00,
2013-01-11 06:22:00,37.2,25.0,30.01,SSW,202,4.0,4.0,61,0.00,CLR,,0.00,WeatherDisplay:10.37,2013-01-11 11:22:00,
2013-01-11 06:23:00,37.4,24.8,30.01,SSW,202,4.6,4.6,60,0.00,CLR,,0.00,WeatherDisplay:10.37,2013-01-11 11:23:00,
2013-01-11 06:25:00,37.4,24.8,30.01,WNW,292,4.6,4.6,60,0.00,CLR,,0.00,WeatherDisplay:10.37,2013-01-11 11:25:00,
2013-01-11 06:27:00,37.4,25.2,30.04,SSW,202,3.5,3.5,61,0.00,CLR,,0.00,WeatherDisplay:10.37,2013-01-11 11:27:00,
2013-01-11 06:29:00,37.4,25.2,30.04,West,270,3.5,3.5,61,0.00,CLR,,0.00,WeatherDisplay:10.37,2013-01-11 11:29:00,
2013-01-11 06:30:00,37.4,25.2,30.04,WNW,292,2.3,2.3,61,0.00,CLR,,0.00,WeatherDisplay:10.37,2013-01-11 11:30:00,
2013-01-11 06:32:00,37.4,25.2,30.04,SSW,202,2.6,2.6,61,0.00,CLR,,0.00,WeatherDisplay:10.37,2013-01-11 11:32:00,
2013-01-11 06:34:00,37.4,24.8,30.04,WSW,248,2.3,2.3,60,0.00,CLR,,0.00,WeatherDisplay:10.37,2013-01-11 11:34:00,
2013-01-11 06:35:00,37.4,24.8,30.04,SSW,202,3.6,3.6,60,0.00,CLR,,0.00,WeatherDisplay:10.37,2013-01-11 11:35:00,
2013-01-11 06:37:00,37.6,24.9,30.04,SSW,202,2.4,2.4,60,0.00,CLR,,0.00,WeatherDisplay:10.37,2013-01-11 11:37:00,
2013-01-11 06:39:00,37.6,24.9,30.04,SSW,202,2.4,2.4,60,0.00,CLR,,0.00,WeatherDisplay:10.37,2013-01-11 11:39:00,
2013-01-11 06:40:00,37.6,24.5,30.04,NW,315,4.6,4.6,59,0.00,CLR,,0.00,WeatherDisplay:10.37,2013-01-11 11:40:00,
2013-01-11 06:42:00,37.6,24.1,30.04,SW,225,4.6,4.6,58,0.00,CLR,,0.00,WeatherDisplay:10.37,2013-01-11 11:42:00,
2013-01-11 06:44:00,37.8,24.3,30.04,West,270,4.6,4.6,58,0.00,CLR,,0.00,WeatherDisplay:10.37,2013-01-11 11:44:00,
2013-01-11 06:45:00,37.8,24.3,30.04,WNW,292,4.6,4.6,58,0.00,CLR,,0.00,WeatherDisplay:10.37,2013-01-11 11:45:00,
2013-01-11 06:47:00,37.9,24.0,30.04,West,270,4.0,4.0,57,0.00,CLR,,0.00,WeatherDisplay:10.37,2013-01-11 11:47:00,
2013-01-11 06:49:00,37.9,24.0,30.04,West,270,4.6,4.6,57,0.00,CLR,,0.00,WeatherDisplay:10.37,2013-01-11 11:49:00,
2013-01-11 06:50:00,38.1,24.2,30.04,WSW,248,5.8,5.8,57,0.00,CLR,,0.00,WeatherDisplay:10.37,2013-01-11 11:50:00,
2013-01-11 06:52:00,38.1,23.8,30.04,WSW,248,3.5,3.5,56,0.00,CLR,,0.00,WeatherDisplay:10.37,2013-01-11 11:52:00,
2013-01-11 06:54:00,38.3,23.5,30.04,WSW,248,4.6,4.6,55,0.00,CLR,,0.00,WeatherDisplay:10.37,2013-01-11 11:54:00,
2013-01-11 06:55:00,38.3,23.5,30.04,WNW,292,4.0,4.0,55,0.00,CLR,,0.00,WeatherDisplay:10.37,2013-01-11 11:55:00,
2013-01-11 06:57:00,38.7,23.0,30.04,WSW,248,5.9,5.9,53,0.00,CLR,,0.00,WeatherDisplay:10.37,2013-01-11 11:57:00,
2013-01-11 06:59:00,38.8,22.7,30.04,WSW,248,5.8,5.8,52,0.00,CLR,,0.00,WeatherDisplay:10.37,2013-01-11 11:59:00,
2013-01-11 07:00:00,38.8,22.7,30.04,WSW,248,4.6,4.6,52,0.00,CLR,,0.00,WeatherDisplay:10.37,2013-01-11 12:00:00,
2013-01-11 07:01:00,39.0,22.9,30.04,West,270,3.6,3.6,52,0.00,CLR,,0.00,WeatherDisplay:10.37,2013-01-11 12:01:00,
2013-01-11 07:03:00,39.2,22.6,30.04,SW,225,4.6,4.6,51,0.00,CLR,,0.00,WeatherDisplay:10.37,2013-01-11 12:03:00,
2013-01-11 07:04:00,39.2,22.6,30.04,SSW,202,4.6,4.6,51,0.00,CLR,,0.00,WeatherDisplay:10.37,2013-01-11 12:04:00,
2013-01-11 07:05:00,39.0,22.9,30.04,WSW,248,3.1,3.1,52,0.00,CLR,,0.00,WeatherDisplay:10.37,2013-01-11 12:05:00,
2013-01-11 07:06:00,39.0,22.9,30.04,South,180,3.5,3.5,52,0.00,CLR,,0.00,WeatherDisplay:10.37,2013-01-11 12:06:00,
2013-01-11 07:08:00,39.2,23.0,30.04,SSW,202,2.4,2.4,52,0.00,CLR,,0.00,WeatherDisplay:10.37,2013-01-11 12:08:00,
2013-01-11 07:09:00,39.2,22.6,30.04,SW,225,2.9,2.9,51,0.00,CLR,,0.00,WeatherDisplay:10.37,2013-01-11 12:09:00,
2013-01-11 07:10:00,39.2,22.6,30.01,WNW,292,3.5,3.5,51,0.00,CLR,,0.00,WeatherDisplay:10.37,2013-01-11 12:10:00,
2013-01-11 07:12:00,39.2,22.6,30.01,WNW,292,4.6,4.6,51,0.00,CLR,,0.00,WeatherDisplay:10.37,2013-01-11 12:12:00,
2013-01-11 07:13:00,39.4,22.3,30.01,SSE,158,2.6,2.6,50,0.00,CLR,,0.00,WeatherDisplay:10.37,2013-01-11 12:13:00,
2013-01-11 07:14:00,39.4,22.7,30.01,West,270,2.4,2.4,51,0.00,CLR,,0.00,WeatherDisplay:10.37,2013-01-11 12:14:00,
2013-01-11 07:15:00,39.4,22.7,30.01,WNW,292,2.3,2.3,51,0.00,CLR,,0.00,WeatherDisplay:10.37,2013-01-11 12:15:00,
2013-01-11 07:17:00,39.4,22.7,30.01,WSW,248,3.8,3.8,51,0.00,CLR,,0.00,WeatherDisplay:10.37,2013-01-11 12:17:00,
2013-01-11 07:18:00,39.6,22.0,30.01,WSW,248,4.6,4.6,49,0.00,CLR,,0.00,WeatherDisplay:10.37,2013-01-11 12:18:00,
2013-01-11 07:19:00,39.7,22.1,30.01,WNW,292,4.6,4.6,49,0.00,CLR,,0.00,WeatherDisplay:10.37,2013-01-11 12:19:00,
2013-01-11 07:21:00,39.7,22.1,30.01,SW,225,3.5,3.5,49,0.00,CLR,,0.00,WeatherDisplay:10.37,2013-01-11 12:21:00,
2013-01-11 07:22:00,39.7,22.6,30.01,WSW,248,3.5,3.5,50,0.00,CLR,,0.00,WeatherDisplay:10.37,2013-01-11 12:22:00,
2013-01-11 07:23:00,39.7,22.6,30.01,SSW,202,3.8,3.8,50,0.00,CLR,,0.00,WeatherDisplay:10.37,2013-01-11 12:23:00,
2013-01-11 07:24:00,39.7,22.1,30.01,NW,315,3.5,3.5,49,0.00,CLR,,0.00,WeatherDisplay:10.37,2013-01-11 12:24:00,
2013-01-11 07:26:00,39.7,22.6,30.01,WSW,248,3.5,3.5,50,0.00,CLR,,0.00,WeatherDisplay:10.37,2013-01-11 12:26:00,
2013-01-11 07:27:00,39.7,22.6,30.01,WSW,248,3.5,3.5,50,0.00,CLR,,0.00,WeatherDisplay:10.37,2013-01-11 12:27:00,
2013-01-11 07:28:00,39.7,22.1,30.01,WSW,248,3.5,3.5,49,0.00,CLR,,0.00,WeatherDisplay:10.37,2013-01-11 12:28:00,
2013-01-11 07:30:00,39.7,22.1,30.01,South,180,3.5,3.5,49,0.00,CLR,,0.00,WeatherDisplay:10.37,2013-01-11 12:30:00,
2013-01-11 07:31:00,39.7,22.1,30.01,WNW,292,3.5,3.5,49,0.00,CLR,,0.00,WeatherDisplay:10.37,2013-01-11 12:31:00,
2013-01-11 07:32:00,39.7,22.1,30.01,SSE,158,5.8,5.8,49,0.00,CLR,,0.00,WeatherDisplay:10.37,2013-01-11 12:32:00,
2013-01-11 07:33:00,39.7,22.1,30.01,WNW,292,4.6,4.6,49,0.00,CLR,,0.00,WeatherDisplay:10.37,2013-01-11 12:33:00,
2013-01-11 07:35:00,39.7,22.1,30.01,WSW,248,3.5,3.5,49,0.00,CLR,,0.00,WeatherDisplay:10.37,2013-01-11 12:35:00,
2013-01-11 07:36:00,39.9,22.3,30.01,SSW,202,4.3,4.3,49,0.00,CLR,,0.00,WeatherDisplay:10.37,2013-01-11 12:36:00,
2013-01-11 07:37:00,39.9,22.3,30.01,WNW,292,4.6,4.6,49,0.00,CLR,,0.00,WeatherDisplay:10.37,2013-01-11 12:37:00,
2013-01-11 07:38:00,39.9,22.3,30.01,SSW,202,4.3,4.3,49,0.00,CLR,,0.00,WeatherDisplay:10.37,2013-01-11 12:38:00,
2013-01-11 07:40:00,39.9,22.3,29.99,SW,225,4.6,4.6,49,0.00,CLR,,0.00,WeatherDisplay:10.37,2013-01-11 12:40:00,
2013-01-11 07:41:00,40.1,22.4,29.99,West,270,3.5,3.5,49,0.00,CLR,,0.00,WeatherDisplay:10.37,2013-01-11 12:41:00,
2013-01-11 07:42:00,40.1,22.4,29.99,WNW,292,4.6,4.6,49,0.00,CLR,,0.00,WeatherDisplay:10.37,2013-01-11 12:42:00,
2013-01-11 07:43:00,40.1,22.0,29.99,West,270,4.6,4.6,48,0.00,CLR,,0.00,WeatherDisplay:10.37,2013-01-11 12:43:00,
2013-01-11 07:45:00,40.3,21.6,29.99,WSW,248,4.6,4.6,47,0.00,CLR,,0.00,WeatherDisplay:10.37,2013-01-11 12:45:00,
2013-01-11 07:46:00,40.3,22.1,29.99,West,270,4.6,4.6,48,0.00,CLR,,0.00,WeatherDisplay:10.37,2013-01-11 12:46:00,
2013-01-11 07:47:00,40.3,22.1,29.99,West,270,5.6,5.6,48,0.00,CLR,,0.00,WeatherDisplay:10.37,2013-01-11 12:47:00,
2013-01-11 07:48:00,40.3,22.1,29.99,WSW,248,5.8,5.8,48,0.00,CLR,,0.00,WeatherDisplay:10.37,2013-01-11 12:48:00,
2013-01-11 07:51:00,40.3,22.1,29.99,WSW,248,3.5,3.5,48,0.00,CLR,,0.00,WeatherDisplay:10.37,2013-01-11 12:51:00,
2013-01-11 07:52:00,40.3,22.1,29.99,WSW,248,3.6,3.6,48,0.00,CLR,,0.00,WeatherDisplay:10.37,2013-01-11 12:52:00,
2013-01-11 07:53:00,40.3,22.1,29.99,WSW,248,3.5,3.5,48,0.00,CLR,,0.00,WeatherDisplay:10.37,2013-01-11 12:53:00,
2013-01-11 07:56:00,40.3,22.1,29.99,SSW,202,3.5,3.5,48,0.00,CLR,,0.00,WeatherDisplay:10.37,2013-01-11 12:56:00,
2013-01-11 07:57:00,40.3,22.6,29.99,SSW,202,3.5,3.5,49,0.00,CLR,,0.00,WeatherDisplay:10.37,2013-01-11 12:57:00,
2013-01-11 07:59:00,40.5,22.3,29.99,WSW,248,2.4,2.4,48,0.00,CLR,,0.00,WeatherDisplay:10.37,2013-01-11 12:59:00,
2013-01-11 08:01:00,40.5,22.3,29.99,WNW,292,4.6,4.6,48,0.00,CLR,,0.00,WeatherDisplay:10.37,2013-01-11 13:01:00,
2013-01-11 08:02:00,40.6,22.0,29.99,WSW,248,3.8,3.8,47,0.00,CLR,,0.00,WeatherDisplay:10.37,2013-01-11 13:02:00,
2013-01-11 08:04:00,40.5,21.8,29.99,WSW,248,3.6,3.6,47,0.00,CLR,,0.00,WeatherDisplay:10.37,2013-01-11 13:04:00,
2013-01-11 08:06:00,40.5,21.8,29.99,WNW,292,3.5,3.5,47,0.00,CLR,,0.00,WeatherDisplay:10.37,2013-01-11 13:06:00,
2013-01-11 08:08:00,40.6,22.0,29.99,WSW,248,5.8,5.8,47,0.00,CLR,,0.00,WeatherDisplay:10.37,2013-01-11 13:08:00,
2013-01-11 08:09:00,40.6,22.0,29.99,ESE,112,5.8,5.8,47,0.00,CLR,,0.00,WeatherDisplay:10.37,2013-01-11 13:09:00,
2013-01-11 08:12:00,40.5,22.3,30.01,South,180,4.6,4.6,48,0.00,CLR,,0.00,WeatherDisplay:10.37,2013-01-11 13:12:00,
2013-01-11 08:13:00,40.5,22.8,30.01,NNW,338,4.6,4.6,49,0.00,CLR,,0.00,WeatherDisplay:10.37,2013-01-11 13:13:00,
2013-01-11 08:14:00,40.5,22.8,30.01,NE,45,2.4,2.4,49,0.00,CLR,,0.00,WeatherDisplay:10.37,2013-01-11 13:14:00,
2013-01-11 08:17:00,40.5,22.8,30.01,West,270,4.6,4.6,49,0.00,CLR,,0.00,WeatherDisplay:10.37,2013-01-11 13:17:00,
2013-01-11 08:18:00,40.5,22.8,30.01,SSW,202,3.5,3.5,49,0.00,CLR,,0.00,WeatherDisplay:10.37,2013-01-11 13:18:00,
2013-01-11 08:19:00,40.5,22.8,30.01,West,270,2.3,2.3,49,0.00,CLR,,0.00,WeatherDisplay:10.37,2013-01-11 13:19:00,
2013-01-11 08:22:00,40.5,22.8,30.01,WSW,248,3.6,3.6,49,0.00,CLR,,0.00,WeatherDisplay:10.37,2013-01-11 13:22:00,
2013-01-11 08:23:00,40.5,22.8,30.01,SW,225,4.6,4.6,49,0.00,CLR,,0.00,WeatherDisplay:10.37,2013-01-11 13:23:00,
2013-01-11 08:24:00,40.5,22.8,30.01,West,270,2.3,2.3,49,0.00,CLR,,0.00,WeatherDisplay:10.37,2013-01-11 13:24:00,
2013-01-11 08:27:00,40.6,22.9,29.99,West,270,5.8,5.8,49,0.00,CLR,,0.00,WeatherDisplay:10.37,2013-01-11 13:27:00,
2013-01-11 08:28:00,40.6,23.4,29.99,West,270,4.3,4.3,50,0.00,CLR,,0.00,WeatherDisplay:10.37,2013-01-11 13:28:00,
2013-01-11 08:29:00,40.6,23.4,29.99,WNW,292,5.8,5.8,50,0.00,CLR,,0.00,WeatherDisplay:10.37,2013-01-11 13:29:00,
2013-01-11 08:32:00,40.8,23.6,29.99,WNW,292,4.6,4.6,50,0.00,CLR,,0.00,WeatherDisplay:10.37,2013-01-11 13:32:00,
2013-01-11 08:33:00,40.8,24.1,29.99,West,270,4.0,4.0,51,0.00,CLR,,0.00,WeatherDisplay:10.37,2013-01-11 13:33:00,
2013-01-11 08:35:00,40.8,24.1,29.99,WSW,248,3.6,3.6,51,0.00,CLR,,0.00,WeatherDisplay:10.37,2013-01-11 13:35:00,
2013-01-11 08:37:00,40.8,24.1,29.99,WNW,292,5.8,5.8,51,0.00,CLR,,0.00,WeatherDisplay:10.37,2013-01-11 13:37:00,
2013-01-11 08:38:00,40.8,24.1,29.99,WNW,292,4.6,4.6,51,0.00,CLR,,0.00,WeatherDisplay:10.37,2013-01-11 13:38:00,
2013-01-11 08:40:00,40.8,24.5,29.99,WNW,292,4.6,4.6,52,0.00,CLR,,0.00,WeatherDisplay:10.37,2013-01-11 13:40:00,
2013-01-11 08:42:00,41.0,24.2,29.99,WNW,292,4.6,4.6,51,0.00,CLR,,0.00,WeatherDisplay:10.37,2013-01-11 13:42:00,
2013-01-11 08:44:00,41.0,24.2,29.99,WSW,248,3.5,3.5,51,0.00,CLR,,0.00,WeatherDisplay:10.37,2013-01-11 13:44:00,
2013-01-11 08:45:00,41.0,24.7,29.99,West,270,4.6,4.6,52,0.00,CLR,,0.00,WeatherDisplay:10.37,2013-01-11 13:45:00,
2013-01-11 08:47:00,41.2,24.9,29.99,WSW,248,4.6,4.6,52,0.00,CLR,,0.00,WeatherDisplay:10.37,2013-01-11 13:47:00,
2013-01-11 08:49:00,41.2,25.3,29.99,NW,315,5.8,5.8,53,0.00,CLR,,0.00,WeatherDisplay:10.37,2013-01-11 13:49:00,
2013-01-11 08:50:00,41.2,25.3,29.99,WSW,248,10.4,10.4,53,0.00,CLR,,0.00,WeatherDisplay:10.37,2013-01-11 13:50:00,
2013-01-11 08:52:00,41.4,25.5,29.99,WNW,292,9.2,9.2,53,0.00,CLR,,0.00,WeatherDisplay:10.37,2013-01-11 13:52:00,
2013-01-11 08:54:00,41.4,25.9,29.99,WNW,292,4.6,4.6,54,0.00,CLR,,0.00,WeatherDisplay:10.37,2013-01-11 13:54:00,
2013-01-11 08:55:00,41.4,25.9,29.95,WSW,248,4.6,4.6,54,0.00,CLR,,0.00,WeatherDisplay:10.37,2013-01-11 13:55:00,
2013-01-11 08:57:00,41.4,25.9,29.95,WSW,248,5.4,5.4,54,0.00,CLR,,0.00,WeatherDisplay:10.37,2013-01-11 13:57:00,
2013-01-11 08:58:00,41.4,25.9,29.95,WSW,248,5.8,5.8,54,0.00,CLR,,0.00,WeatherDisplay:10.37,2013-01-11 13:58:00,
2013-01-11 08:59:00,41.5,25.7,29.95,WSW,248,6.9,6.9,53,0.00,CLR,,0.00,WeatherDisplay:10.37,2013-01-11 13:59:00,
2013-01-11 09:00:00,41.5,25.7,29.95,SW,225,6.9,6.9,53,0.00,CLR,,0.00,WeatherDisplay:10.37,2013-01-11 14:00:00,
2013-01-11 09:03:00,41.5,25.7,29.95,NW,315,5.9,5.9,53,0.00,CLR,,0.00,WeatherDisplay:10.37,2013-01-11 14:03:00,
2013-01-11 09:05:00,41.7,26.3,29.95,WSW,248,8.1,8.1,54,0.00,CLR,,0.00,WeatherDisplay:10.37,2013-01-11 14:05:00,
2013-01-11 09:08:00,41.7,26.3,29.95,SW,225,6.4,6.4,54,0.00,CLR,,0.00,WeatherDisplay:10.37,2013-01-11 14:08:00,
2013-01-11 09:09:00,41.7,26.7,29.95,West,270,9.2,9.2,55,0.00,CLR,,0.00,WeatherDisplay:10.37,2013-01-11 14:09:00,
2013-01-11 09:10:00,41.7,26.7,30.01,NW,315,9.2,9.2,55,0.00,CLR,,0.00,WeatherDisplay:10.37,2013-01-11 14:10:00,
2013-01-11 09:13:00,41.7,28.0,30.01,WNW,292,10.4,10.4,58,0.00,CLR,,0.00,WeatherDisplay:10.37,2013-01-11 14:13:00,
2013-01-11 09:14:00,41.5,29.1,30.01,West,270,10.5,10.5,61,0.00,CLR,,0.00,WeatherDisplay:10.37,2013-01-11 14:14:00,
2013-01-11 09:15:00,41.4,30.1,30.01,WNW,292,10.4,10.4,64,0.00,CLR,,0.00,WeatherDisplay:10.37,2013-01-11 14:15:00,
2013-01-11 09:18:00,41.0,31.6,30.01,WSW,248,11.5,11.5,69,0.00,CLR,,0.00,WeatherDisplay:10.37,2013-01-11 14:18:00,
2013-01-11 09:19:00,41.0,31.6,30.01,WNW,292,9.2,9.2,69,0.00,CLR,,0.00,WeatherDisplay:10.37,2013-01-11 14:19:00,
2013-01-11 09:20:00,40.8,32.1,30.01,WSW,248,9.2,9.2,71,0.00,CLR,,0.00,WeatherDisplay:10.37,2013-01-11 14:20:00,
2013-01-11 09:23:00,40.6,32.7,30.01,WNW,292,8.1,8.1,73,0.00,CLR,,0.00,WeatherDisplay:10.37,2013-01-11 14:23:00,
2013-01-11 09:24:00,40.6,33.0,30.01,WNW,292,6.9,6.9,74,0.00,CLR,,0.00,WeatherDisplay:10.37,2013-01-11 14:24:00,
2013-01-11 09:25:00,40.5,33.2,29.99,West,270,12.7,12.7,75,0.00,CLR,,0.00,WeatherDisplay:10.37,2013-01-11 14:25:00,
2013-01-11 09:26:00,40.5,33.2,29.99,SSW,202,8.1,8.1,75,0.00,CLR,,0.04,WeatherDisplay:10.37,2013-01-11 14:26:00,
2013-01-11 09:28:00,40.3,33.3,29.99,NW,315,6.0,6.0,76,0.04,RA,,0.04,WeatherDisplay:10.37,2013-01-11 14:28:00,
2013-01-11 09:29:00,40.3,33.3,29.99,West,270,5.8,5.8,76,0.04,RA,,0.04,WeatherDisplay:10.37,2013-01-11 14:29:00,
2013-01-11 09:31:00,40.1,33.8,29.99,West,270,5.8,5.8,78,0.04,RA,,0.04,WeatherDisplay:10.37,2013-01-11 14:31:00,
2013-01-11 09:33:00,39.9,33.9,29.99,NW,315,5.8,5.8,79,0.04,RA,,0.04,WeatherDisplay:10.37,2013-01-11 14:33:00,
2013-01-11 09:34:00,39.7,33.8,29.99,WSW,248,4.6,4.6,79,0.04,RA,,0.04,WeatherDisplay:10.37,2013-01-11 14:34:00,
2013-01-11 09:36:00,39.6,33.6,29.99,West,270,3.5,3.5,79,0.04,RA,,0.04,WeatherDisplay:10.37,2013-01-11 14:36:00,
2013-01-11 09:38:00,39.4,33.7,29.99,WSW,248,4.6,4.6,80,0.04,,,0.04,WeatherDisplay:10.37,2013-01-11 14:38:00,
2013-01-11 09:40:00,39.2,33.5,29.99,WNW,292,3.5,3.5,80,0.04,CLR,,0.04,WeatherDisplay:10.37,2013-01-11 14:40:00,
2013-01-11 09:41:00,39.2,33.5,29.99,WSW,248,3.5,3.5,80,0.04,CLR,,0.04,WeatherDisplay:10.37,2013-01-11 14:41:00,
2013-01-11 09:43:00,39.2,34.2,29.99,WSW,248,6.2,6.2,82,0.04,CLR,,0.04,WeatherDisplay:10.37,2013-01-11 14:43:00,
2013-01-11 09:45:00,39.2,34.2,29.99,WNW,292,6.9,6.9,82,0.04,CLR,,0.04,WeatherDisplay:10.37,2013-01-11 14:45:00,
2013-01-11 09:46:00,39.2,34.2,29.99,WSW,248,5.8,5.8,82,0.04,CLR,,0.04,WeatherDisplay:10.37,2013-01-11 14:46:00,
2013-01-11 09:49:00,39.2,34.2,29.99,WNW,292,4.6,4.6,82,0.04,CLR,,0.04,WeatherDisplay:10.37,2013-01-11 14:49:00,
2013-01-11 09:50:00,39.2,34.2,29.99,WSW,248,3.5,3.5,82,0.04,CLR,,0.04,WeatherDisplay:10.37,2013-01-11 14:50:00,
2013-01-11 09:51:00,39.2,34.2,29.99,West,270,3.5,3.5,82,0.04,CLR,,0.04,WeatherDisplay:10.37,2013-01-11 14:51:00,
2013-01-11 09:54:00,39.2,34.2,29.99,West,270,4.6,4.6,82,0.04,CLR,,0.04,WeatherDisplay:10.37,2013-01-11 14:54:00,
2013-01-11 09:56:00,39.2,34.2,29.99,WSW,248,8.1,8.1,82,0.04,CLR,,0.04,WeatherDisplay:10.37,2013-01-11 14:56:00,
2013-01-11 09:59:00,39.4,34.0,29.99,WSW,248,5.8,5.8,81,0.04,CLR,,0.04,WeatherDisplay:10.37,2013-01-11 14:59:00,
2013-01-11 10:01:00,39.4,33.7,29.99,WSW,248,3.5,3.5,80,0.04,CLR,,0.04,WeatherDisplay:10.37,2013-01-11 15:01:00,
2013-01-11 10:04:00,39.6,33.6,29.99,WSW,248,4.6,4.6,79,0.04,CLR,,0.04,WeatherDisplay:10.37,2013-01-11 15:04:00,
2013-01-11 10:06:00,39.6,33.6,29.99,South,180,5.4,5.4,79,0.04,CLR,,0.04,WeatherDisplay:10.37,2013-01-11 15:06:00,
2013-01-11 10:09:00,39.7,33.4,29.99,WSW,248,5.8,5.8,78,0.04,CLR,,0.04,WeatherDisplay:10.37,2013-01-11 15:09:00,
2013-01-11 10:11:00,39.9,33.3,30.01,West,270,9.2,9.2,77,0.04,CLR,,0.04,WeatherDisplay:10.37,2013-01-11 15:11:00,
2013-01-11 10:12:00,39.9,33.3,30.01,WSW,248,5.8,5.8,77,0.04,CLR,,0.04,WeatherDisplay:10.37,2013-01-11 15:12:00,
2013-01-11 10:14:00,39.9,33.3,30.01,WSW,248,5.8,5.8,77,0.04,CLR,,0.04,WeatherDisplay:10.37,2013-01-11 15:14:00,
2013-01-11 10:16:00,40.3,33.3,30.01,WSW,248,5.8,5.8,76,0.04,CLR,,0.04,WeatherDisplay:10.37,2013-01-11 15:16:00,
2013-01-11 10:17:00,40.3,33.3,30.01,WSW,248,5.8,5.8,76,0.04,CLR,,0.04,WeatherDisplay:10.37,2013-01-11 15:17:00,
2013-01-11 10:19:00,40.3,33.0,30.01,NNW,338,6.9,6.9,75,0.04,CLR,,0.04,WeatherDisplay:10.37,2013-01-11 15:19:00,
2013-01-11 10:21:00,40.5,32.8,30.01,SSW,202,4.6,4.6,74,0.04,CLR,,0.04,WeatherDisplay:10.37,2013-01-11 15:21:00,
2013-01-11 10:22:00,40.5,32.8,30.01,SSW,202,4.6,4.6,74,0.04,CLR,,0.04,WeatherDisplay:10.37,2013-01-11 15:22:00,
2013-01-11 10:24:00,40.6,32.7,30.01,WNW,292,5.8,5.8,73,0.04,CLR,,0.04,WeatherDisplay:10.37,2013-01-11 15:24:00,
2013-01-11 10:27:00,41.0,32.7,29.99,WSW,248,5.8,5.8,72,0.00,CLR,,0.04,WeatherDisplay:10.37,2013-01-11 15:27:00,
2013-01-11 10:29:00,41.2,32.5,29.99,WNW,292,4.6,4.6,71,0.00,CLR,,0.04,WeatherDisplay:10.37,2013-01-11 15:29:00,
2013-01-11 10:32:00,41.5,32.5,29.99,West,270,5.8,5.8,70,0.00,CLR,,0.04,WeatherDisplay:10.37,2013-01-11 15:32:00,
2013-01-11 10:34:00,41.7,32.3,29.99,WSW,248,3.5,3.6,69,0.00,CLR,,0.04,WeatherDisplay:10.37,2013-01-11 15:34:00,
2013-01-11 10:37:00,42.1,31.9,29.99,WSW,248,4.6,4.6,67,0.00,CLR,,0.04,WeatherDisplay:10.37,2013-01-11 15:37:00,
2013-01-11 10:39:00,42.3,31.7,29.99,WSW,248,6.9,6.9,66,0.00,CLR,,0.04,WeatherDisplay:10.37,2013-01-11 15:39:00,
2013-01-11 10:42:00,42.3,31.7,29.95,WSW,248,6.2,6.2,66,0.00,CLR,,0.04,WeatherDisplay:10.37,2013-01-11 15:42:00,
2013-01-11 10:43:00,42.4,31.5,29.95,WSW,248,5.8,5.8,65,0.00,CLR,,0.04,WeatherDisplay:10.37,2013-01-11 15:43:00,
2013-01-11 10:45:00,42.4,31.1,29.95,WSW,248,4.6,4.6,64,0.00,CLR,,0.04,WeatherDisplay:10.37,2013-01-11 15:45:00,
2013-01-11 10:47:00,42.6,30.9,29.95,WSW,248,5.8,5.8,63,0.00,CLR,,0.04,WeatherDisplay:10.37,2013-01-11 15:47:00,
2013-01-11 10:48:00,42.6,30.9,29.95,WSW,248,5.8,5.8,63,0.00,CLR,,0.04,WeatherDisplay:10.37,2013-01-11 15:48:00,
2013-01-11 10:50:00,42.8,30.7,29.95,WSW,248,4.6,4.6,62,0.00,CLR,,0.04,WeatherDisplay:10.37,2013-01-11 15:50:00,
2013-01-11 10:52:00,42.8,31.1,29.95,WNW,292,4.7,4.7,63,0.00,CLR,,0.04,WeatherDisplay:10.37,2013-01-11 15:52:00,
2013-01-11 10:53:00,42.8,30.7,29.95,WSW,248,5.8,5.8,62,0.00,CLR,,0.04,WeatherDisplay:10.37,2013-01-11 15:53:00,
2013-01-11 10:55:00,42.8,30.3,29.93,NW,315,8.1,8.1,61,0.00,CLR,,0.04,WeatherDisplay:10.37,2013-01-11 15:55:00,
2013-01-11 10:57:00,42.8,29.9,29.93,WNW,292,5.8,5.8,60,0.00,CLR,,0.04,WeatherDisplay:10.37,2013-01-11 15:57:00,
2013-01-11 10:58:00,43.0,30.0,29.93,WSW,248,6.4,6.4,60,0.00,CLR,,0.04,WeatherDisplay:10.37,2013-01-11 15:58:00,
2013-01-11 11:01:00,43.2,29.8,29.93,NW,315,5.8,5.8,59,0.00,CLR,,0.04,WeatherDisplay:10.37,2013-01-11 16:01:00,
2013-01-11 11:02:00,43.3,29.5,29.93,West,270,5.8,5.8,58,0.00,CLR,,0.04,WeatherDisplay:10.37,2013-01-11 16:02:00,
2013-01-11 11:03:00,43.3,29.5,29.93,WSW,248,5.8,5.8,58,0.00,CLR,,0.04,WeatherDisplay:10.37,2013-01-11 16:03:00,
2013-01-11 11:06:00,43.5,29.3,29.93,WNW,292,8.1,8.1,57,0.00,CLR,,0.04,WeatherDisplay:10.37,2013-01-11 16:06:00,
2013-01-11 11:07:00,43.5,28.8,29.93,WSW,248,8.1,8.1,56,0.00,CLR,,0.04,WeatherDisplay:10.37,2013-01-11 16:07:00,
2013-01-11 11:08:00,43.5,28.8,29.93,SW,225,5.4,5.4,56,0.00,CLR,,0.04,WeatherDisplay:10.37,2013-01-11 16:08:00,
2013-01-11 11:11:00,43.7,28.6,29.93,West,270,8.7,8.7,55,0.00,CLR,,0.04,WeatherDisplay:10.37,2013-01-11 16:11:00,
2013-01-11 11:12:00,43.7,28.1,29.93,WSW,248,9.2,9.2,54,0.00,CLR,,0.04,WeatherDisplay:10.37,2013-01-11 16:12:00,
2013-01-11 11:13:00,43.7,28.1,29.93,WSW,248,5.8,5.8,54,0.00,CLR,,0.04,WeatherDisplay:10.37,2013-01-11 16:13:00,
2013-01-11 11:14:00,43.7,28.6,29.93,West,270,5.8,5.8,55,0.00,CLR,,0.04,WeatherDisplay:10.37,2013-01-11 16:14:00,
2013-01-11 11:16:00,43.9,28.7,29.93,WSW,248,6.9,6.9,55,0.00,CLR,,0.04,WeatherDisplay:10.37,2013-01-11 16:16:00,
2013-01-11 11:17:00,43.9,28.7,29.93,West,270,4.9,4.9,55,0.00,CLR,,0.04,WeatherDisplay:10.37,2013-01-11 16:17:00,
2013-01-11 11:18:00,43.9,28.3,29.93,WNW,292,8.1,8.1,54,0.00,CLR,,0.04,WeatherDisplay:10.37,2013-01-11 16:18:00,
2013-01-11 11:19:00,43.9,28.3,29.93,WNW,292,8.1,8.1,54,0.00,CLR,,0.04,WeatherDisplay:10.37,2013-01-11 16:19:00,
2013-01-11 11:21:00,44.1,28.9,29.93,WNW,292,5.8,5.8,55,0.00,CLR,,0.04,WeatherDisplay:10.37,2013-01-11 16:21:00,
2013-01-11 11:23:00,44.1,28.9,29.93,SSW,202,4.6,4.6,55,0.00,CLR,,0.04,WeatherDisplay:10.37,2013-01-11 16:23:00,
2013-01-11 11:24:00,44.1,28.9,29.93,WSW,248,4.6,4.6,55,0.00,CLR,,0.04,WeatherDisplay:10.37,2013-01-11 16:24:00,
2013-01-11 11:26:00,44.2,28.6,29.93,West,270,6.9,6.9,54,0.00,CLR,,0.04,WeatherDisplay:10.37,2013-01-11 16:26:00,
2013-01-11 11:28:00,44.2,28.6,29.93,West,270,5.8,5.8,54,0.00,CLR,,0.04,WeatherDisplay:10.37,2013-01-11 16:28:00,
2013-01-11 11:29:00,44.2,28.6,29.93,SSE,158,5.9,5.9,54,0.00,CLR,,0.04,WeatherDisplay:10.37,2013-01-11 16:29:00,
2013-01-11 11:31:00,44.2,28.6,29.93,WSW,248,5.9,5.9,54,0.00,CLR,,0.04,WeatherDisplay:10.37,2013-01-11 16:31:00,
2013-01-11 11:33:00,44.4,28.8,29.93,WSW,248,5.8,5.8,54,0.00,CLR,,0.04,WeatherDisplay:10.37,2013-01-11 16:33:00,
2013-01-11 11:34:00,44.4,28.8,29.93,SSE,158,3.5,3.5,54,0.00,CLR,,0.04,WeatherDisplay:10.37,2013-01-11 16:34:00,
2013-01-11 11:36:00,44.2,28.6,29.93,West,270,5.6,5.6,54,0.00,CLR,,0.04,WeatherDisplay:10.37,2013-01-11 16:36:00,
2013-01-11 11:38:00,44.2,28.6,29.93,SSW,202,6.9,6.9,54,0.00,CLR,,0.04,WeatherDisplay:10.37,2013-01-11 16:38:00,
2013-01-11 11:39:00,44.1,28.5,29.93,WSW,248,4.6,4.6,54,0.00,CLR,,0.04,WeatherDisplay:10.37,2013-01-11 16:39:00,
2013-01-11 11:41:00,44.1,28.5,29.90,WSW,248,3.5,3.5,54,0.00,CLR,,0.04,WeatherDisplay:10.37,2013-01-11 16:41:00,
2013-01-11 11:43:00,43.9,28.7,29.90,West,270,5.6,5.6,55,0.00,CLR,,0.04,WeatherDisplay:10.37,2013-01-11 16:43:00,
2013-01-11 11:44:00,43.7,28.1,29.90,South,180,8.1,8.1,54,0.00,CLR,,0.04,WeatherDisplay:10.37,2013-01-11 16:44:00,
2013-01-11 11:46:00,43.7,28.6,29.90,WSW,248,4.6,4.6,55,0.00,CLR,,0.04,WeatherDisplay:10.37,2013-01-11 16:46:00,
2013-01-11 11:48:00,43.5,28.8,29.90,West,270,4.7,4.7,56,0.00,CLR,,0.04,WeatherDisplay:10.37,2013-01-11 16:48:00,
2013-01-11 11:49:00,43.5,29.3,29.90,SSW,202,8.7,8.7,57,0.00,CLR,,0.04,WeatherDisplay:10.37,2013-01-11 16:49:00,
2013-01-11 11:51:00,43.3,29.5,29.90,West,270,5.8,5.8,58,0.00,CLR,,0.04,WeatherDisplay:10.37,2013-01-11 16:51:00,
2013-01-11 11:53:00,43.0,30.0,29.90,WSW,248,4.6,4.6,60,0.00,CLR,,0.04,WeatherDisplay:10.37,2013-01-11 16:53:00,
2013-01-11 11:54:00,43.0,30.0,29.90,West,270,3.5,3.5,60,0.00,CLR,,0.04,WeatherDisplay:10.37,2013-01-11 16:54:00,
2013-01-11 11:57:00,42.8,30.3,29.90,WSW,248,3.6,3.6,61,0.00,CLR,,0.04,WeatherDisplay:10.37,2013-01-11 16:57:00,
2013-01-11 11:59:00,42.4,31.1,29.90,West,270,4.6,4.6,64,0.00,CLR,,0.04,WeatherDisplay:10.37,2013-01-11 16:59:00,
2013-01-11 12:02:00,42.4,31.9,29.90,SW,225,4.7,4.7,66,0.00,CLR,,0.04,WeatherDisplay:10.37,2013-01-11 17:02:00,
2013-01-11 12:04:00,42.4,31.9,29.90,WSW,248,4.6,4.6,66,0.00,CLR,,0.04,WeatherDisplay:10.37,2013-01-11 17:04:00,
2013-01-11 12:05:00,42.4,32.3,29.90,WSW,248,4.6,4.6,67,0.00,CLR,,0.04,WeatherDisplay:10.37,2013-01-11 17:05:00,
2013-01-11 12:07:00,42.3,32.1,29.90,WNW,292,4.0,4.0,67,0.00,CLR,,0.04,WeatherDisplay:10.37,2013-01-11 17:07:00,
2013-01-11 12:09:00,42.3,32.4,29.90,WNW,292,3.5,3.5,68,0.00,CLR,,0.04,WeatherDisplay:10.37,2013-01-11 17:09:00,
2013-01-11 12:10:00,42.3,32.4,29.84,WSW,248,3.5,3.5,68,0.00,CLR,,0.04,WeatherDisplay:10.37,2013-01-11 17:10:00,
2013-01-11 12:12:00,42.3,32.8,29.84,WSW,248,5.8,5.8,69,0.00,CLR,,0.04,WeatherDisplay:10.37,2013-01-11 17:12:00,
2013-01-11 12:14:00,42.1,32.6,29.84,WSW,248,5.8,5.8,69,0.00,CLR,,0.04,WeatherDisplay:10.37,2013-01-11 17:14:00,
2013-01-11 12:15:00,42.1,32.6,29.84,WSW,248,3.5,3.5,69,0.00,CLR,,0.04,WeatherDisplay:10.37,2013-01-11 17:15:00,
2013-01-11 12:18:00,42.3,33.2,29.84,WSW,248,5.8,5.8,70,0.00,CLR,,0.04,WeatherDisplay:10.37,2013-01-11 17:18:00,
2013-01-11 12:19:00,42.3,33.2,29.84,WSW,248,5.8,5.8,70,0.00,CLR,,0.04,WeatherDisplay:10.37,2013-01-11 17:19:00,
2013-01-11 12:20:00,42.3,33.2,29.84,SSW,202,8.1,8.1,70,0.00,CLR,,0.04,WeatherDisplay:10.37,2013-01-11 17:20:00,
2013-01-11 12:23:00,42.4,33.3,29.84,WSW,248,5.8,5.8,70,0.00,CLR,,0.04,WeatherDisplay:10.37,2013-01-11 17:23:00,
2013-01-11 12:24:00,42.4,33.3,29.84,NNW,338,4.6,4.6,70,0.00,CLR,,0.04,WeatherDisplay:10.37,2013-01-11 17:24:00,
2013-01-11 12:25:00,42.6,33.5,29.84,WSW,248,4.0,4.0,70,0.00,CLR,,0.04,WeatherDisplay:10.37,2013-01-11 17:25:00,
2013-01-11 12:28:00,42.8,33.7,29.87,SW,225,6.9,6.9,70,0.00,CLR,,0.04,WeatherDisplay:10.37,2013-01-11 17:28:00,
2013-01-11 12:29:00,42.8,33.7,29.87,WSW,248,6.9,6.9,70,0.00,CLR,,0.04,WeatherDisplay:10.37,2013-01-11 17:29:00,
2013-01-11 12:30:00,43.0,33.9,29.87,WSW,248,5.8,5.8,70,0.00,CLR,,0.04,WeatherDisplay:10.37,2013-01-11 17:30:00,
2013-01-11 12:33:00,43.0,33.9,29.87,WSW,248,6.0,6.0,70,0.00,CLR,,0.04,WeatherDisplay:10.37,2013-01-11 17:33:00,
2013-01-11 12:34:00,43.0,33.5,29.87,WSW,248,5.8,5.8,69,0.00,CLR,,0.04,WeatherDisplay:10.37,2013-01-11 17:34:00,
2013-01-11 12:35:00,43.2,33.7,29.87,WSW,248,6.9,6.9,69,0.00,CLR,,0.04,WeatherDisplay:10.37,2013-01-11 17:35:00,
2013-01-11 12:39:00,43.5,34.0,29.87,West,270,6.4,6.4,69,0.00,CLR,,0.04,WeatherDisplay:10.37,2013-01-11 17:39:00,
2013-01-11 12:40:00,43.7,34.2,29.87,West,270,8.1,8.1,69,0.00,CLR,,0.04,WeatherDisplay:10.37,2013-01-11 17:40:00,
2013-01-11 12:41:00,43.7,34.2,29.87,WSW,248,8.7,8.7,69,0.00,CLR,,0.04,WeatherDisplay:10.37,2013-01-11 17:41:00,
2013-01-11 12:44:00,44.1,34.2,29.87,West,270,8.1,8.1,68,0.00,CLR,,0.04,WeatherDisplay:10.37,2013-01-11 17:44:00,
2013-01-11 12:45:00,44.1,34.2,29.87,WSW,248,8.1,8.1,68,0.00,CLR,,0.04,WeatherDisplay:10.37,2013-01-11 17:45:00,
2013-01-11 12:46:00,44.2,34.7,29.87,WSW,248,4.6,4.6,69,0.00,CLR,,0.04,WeatherDisplay:10.37,2013-01-11 17:46:00,
2013-01-11 12:49:00,44.6,34.7,29.87,WSW,248,8.1,8.1,68,0.00,CLR,,0.04,WeatherDisplay:10.37,2013-01-11 17:49:00,
2013-01-11 12:50:00,44.8,34.9,29.87,West,270,6.9,6.9,68,0.00,CLR,,0.04,WeatherDisplay:10.37,2013-01-11 17:50:00,
2013-01-11 12:51:00,44.8,34.9,29.87,WNW,292,10.4,10.4,68,0.00,CLR,,0.04,WeatherDisplay:10.37,2013-01-11 17:51:00,
2013-01-11 12:54:00,45.0,34.7,29.87,WSW,248,10.4,10.4,67,0.00,CLR,,0.04,WeatherDisplay:10.37,2013-01-11 17:54:00,
2013-01-11 12:55:00,45.1,34.8,29.84,West,270,6.9,6.9,67,0.00,CLR,,0.04,WeatherDisplay:10.37,2013-01-11 17:55:00,
2013-01-11 12:56:00,45.1,34.8,29.84,West,270,5.8,5.8,67,0.00,CLR,,0.04,WeatherDisplay:10.37,2013-01-11 17:56:00,
2013-01-11 12:59:00,45.3,35.0,29.84,WNW,292,5.9,5.9,67,0.00,CLR,,0.04,WeatherDisplay:10.37,2013-01-11 17:59:00,
2013-01-11 13:00:00,45.3,35.0,29.84,WNW,292,7.8,7.8,67,0.00,CLR,,0.04,WeatherDisplay:10.37,2013-01-11 18:00:00,
2013-01-11 13:02:00,45.3,35.0,29.84,SW,225,8.1,8.1,67,0.00,CLR,,0.04,WeatherDisplay:10.37,2013-01-11 18:02:00,
2013-01-11 13:04:00,45.3,34.6,29.84,West,270,5.8,5.8,66,0.00,CLR,,0.04,WeatherDisplay:10.37,2013-01-11 18:04:00,
2013-01-11 13:05:00,45.3,34.6,29.84,West,270,9.2,9.2,66,0.00,CLR,,0.04,WeatherDisplay:10.37,2013-01-11 18:05:00,
2013-01-11 13:07:00,45.3,34.6,29.84,WSW,248,9.2,9.2,66,0.00,CLR,,0.04,WeatherDisplay:10.37,2013-01-11 18:07:00,
2013-01-11 13:09:00,45.1,34.5,29.84,WSW,248,6.9,6.9,66,0.00,CLR,,0.04,WeatherDisplay:10.37,2013-01-11 18:09:00,
2013-01-11 13:10:00,45.1,34.5,29.84,NW,315,7.4,7.4,66,0.00,CLR,,0.04,WeatherDisplay:10.37,2013-01-11 18:10:00,
2013-01-11 13:12:00,45.1,34.5,29.84,SW,225,8.1,8.1,66,0.00,CLR,,0.04,WeatherDisplay:10.37,2013-01-11 18:12:00,
2013-01-11 13:14:00,45.1,34.5,29.84,SW,225,6.9,6.9,66,0.00,CLR,,0.04,WeatherDisplay:10.37,2013-01-11 18:14:00,
2013-01-11 13:15:00,45.1,34.5,29.84,WSW,248,5.8,5.8,66,0.00,CLR,,0.04,WeatherDisplay:10.37,2013-01-11 18:15:00,
2013-01-11 13:17:00,45.1,34.5,29.84,SSW,202,8.1,8.1,66,0.00,CLR,,0.04,WeatherDisplay:10.37,2013-01-11 18:17:00,
2013-01-11 13:19:00,45.1,34.5,29.84,West,270,9.2,9.2,66,0.00,CLR,,0.04,WeatherDisplay:10.37,2013-01-11 18:19:00,
2013-01-11 13:20:00,45.1,34.5,29.84,SSW,202,9.2,9.2,66,0.00,CLR,,0.04,WeatherDisplay:10.37,2013-01-11 18:20:00,
2013-01-11 13:21:00,45.1,34.5,29.84,WSW,248,6.9,6.9,66,0.00,CLR,,0.04,WeatherDisplay:10.37,2013-01-11 18:21:00,
2013-01-11 13:22:00,45.0,33.9,29.84,WSW,248,6.9,6.9,65,0.00,CLR,,0.04,WeatherDisplay:10.37,2013-01-11 18:22:00,
2013-01-11 13:24:00,45.0,33.9,29.84,West,270,9.2,9.2,65,0.00,CLR,,0.04,WeatherDisplay:10.37,2013-01-11 18:24:00,
2013-01-11 13:25:00,45.0,33.9,29.84,WSW,248,11.5,11.5,65,0.00,CLR,,0.04,WeatherDisplay:10.37,2013-01-11 18:25:00,
2013-01-11 13:26:00,45.0,33.9,29.84,West,270,4.6,4.6,65,0.00,CLR,,0.04,WeatherDisplay:10.37,2013-01-11 18:26:00,
2013-01-11 13:27:00,45.0,33.9,29.84,WNW,292,5.8,5.8,65,0.00,CLR,,0.04,WeatherDisplay:10.37,2013-01-11 18:27:00,
2013-01-11 13:29:00,45.0,33.9,29.84,WNW,292,8.1,8.1,65,0.00,CLR,,0.04,WeatherDisplay:10.37,2013-01-11 18:29:00,
2013-01-11 13:30:00,45.0,33.9,29.84,West,270,8.7,8.7,65,0.00,CLR,,0.04,WeatherDisplay:10.37,2013-01-11 18:30:00,
2013-01-11 13:31:00,45.0,33.9,29.84,WSW,248,9.2,9.2,65,0.00,CLR,,0.04,WeatherDisplay:10.37,2013-01-11 18:31:00,
2013-01-11 13:32:00,45.0,33.5,29.84,SW,225,9.2,9.2,64,0.00,CLR,,0.04,WeatherDisplay:10.37,2013-01-11 18:32:00,
2013-01-11 13:34:00,45.0,33.5,29.84,West,270,6.9,6.9,64,0.00,CLR,,0.04,WeatherDisplay:10.37,2013-01-11 18:34:00,
2013-01-11 13:35:00,45.1,33.7,29.84,WSW,248,6.4,6.4,64,0.00,CLR,,0.04,WeatherDisplay:10.37,2013-01-11 18:35:00,
2013-01-11 13:36:00,45.1,33.7,29.84,WNW,292,6.9,6.9,64,0.00,CLR,,0.04,WeatherDisplay:10.37,2013-01-11 18:36:00,
2013-01-11 13:37:00,45.1,33.3,29.84,WSW,248,8.1,8.1,63,0.00,CLR,,0.04,WeatherDisplay:10.37,2013-01-11 18:37:00,
2013-01-11 13:39:00,45.1,33.3,29.84,WSW,248,6.4,6.4,63,0.00,CLR,,0.04,WeatherDisplay:10.37,2013-01-11 18:39:00,
2013-01-11 13:40:00,45.1,33.3,29.81,West,270,6.9,6.9,63,0.00,CLR,,0.04,WeatherDisplay:10.37,2013-01-11 18:40:00,
2013-01-11 13:41:00,45.1,33.3,29.81,West,270,6.9,6.9,63,0.00,CLR,,0.04,WeatherDisplay:10.37,2013-01-11 18:41:00,
2013-01-11 13:43:00,45.1,33.3,29.81,West,270,9.2,9.2,63,0.00,CLR,,0.04,WeatherDisplay:10.37,2013-01-11 18:43:00,
2013-01-11 13:44:00,45.3,33.5,29.81,WSW,248,5.8,5.8,63,0.00,CLR,,0.04,WeatherDisplay:10.37,2013-01-11 18:44:00,
2013-01-11 13:46:00,45.3,33.5,29.81,WNW,292,5.8,5.8,63,0.00,CLR,,0.04,WeatherDisplay:10.37,2013-01-11 18:46:00,
2013-01-11 13:48:00,45.3,33.5,29.81,West,270,6.9,6.9,63,0.00,CLR,,0.04,WeatherDisplay:10.37,2013-01-11 18:48:00,
2013-01-11 13:50:00,45.5,33.6,29.81,WNW,292,3.5,3.5,63,0.00,CLR,,0.04,WeatherDisplay:10.37,2013-01-11 18:50:00,
2013-01-11 13:51:00,45.5,33.6,29.81,WNW,292,6.9,6.9,63,0.00,CLR,,0.04,WeatherDisplay:10.37,2013-01-11 18:51:00,
2013-01-11 13:53:00,45.5,33.2,29.81,WSW,248,5.8,5.8,62,0.00,CLR,,0.04,WeatherDisplay:10.37,2013-01-11 18:53:00,
2013-01-11 13:55:00,45.7,33.0,29.81,West,270,8.1,8.1,61,0.00,CLR,,0.04,WeatherDisplay:10.37,2013-01-11 18:55:00,
2013-01-11 13:56:00,45.7,33.0,29.81,West,270,8.1,8.1,61,0.00,CLR,,0.04,WeatherDisplay:10.37,2013-01-11 18:56:00,
2013-01-11 13:58:00,45.9,33.6,29.81,WSW,248,6.9,6.9,62,0.00,CLR,,0.04,WeatherDisplay:10.37,2013-01-11 18:58:00,
2013-01-11 14:00:00,45.9,33.6,29.81,WSW,248,5.8,5.8,62,0.00,CLR,,0.04,WeatherDisplay:10.37,2013-01-11 19:00:00,
2013-01-11 14:01:00,45.9,33.6,29.81,WSW,248,5.8,5.8,62,0.00,CLR,,0.04,WeatherDisplay:10.37,2013-01-11 19:01:00,
2013-01-11 14:03:00,45.7,33.8,29.81,WSW,248,5.8,5.8,63,0.00,CLR,,0.04,WeatherDisplay:10.37,2013-01-11 19:03:00,
2013-01-11 14:05:00,45.5,34.0,29.81,WSW,248,6.9,6.9,64,0.00,CLR,,0.04,WeatherDisplay:10.37,2013-01-11 19:05:00,
2013-01-11 14:06:00,45.5,34.0,29.81,WSW,248,8.1,8.1,64,0.00,CLR,,0.04,WeatherDisplay:10.37,2013-01-11 19:06:00,
2013-01-11 14:08:00,45.3,34.6,29.81,WSW,248,9.2,9.2,66,0.00,CLR,,0.04,WeatherDisplay:10.37,2013-01-11 19:08:00,
2013-01-11 14:10:00,45.1,34.8,29.81,WSW,248,5.8,5.8,67,0.00,CLR,,0.04,WeatherDisplay:10.37,2013-01-11 19:10:00,
2013-01-11 14:11:00,45.1,34.8,29.81,WNW,292,3.6,4.5,67,0.00,CLR,,0.04,WeatherDisplay:10.37,2013-01-11 19:11:00,
2013-01-11 14:13:00,45.0,35.0,29.81,West,270,6.9,6.9,68,0.00,CLR,,0.04,WeatherDisplay:10.37,2013-01-11 19:13:00,
2013-01-11 14:15:00,44.8,34.9,29.81,WSW,248,5.8,5.8,68,0.00,CLR,,0.04,WeatherDisplay:10.37,2013-01-11 19:15:00,
2013-01-11 14:16:00,44.8,34.9,29.81,WNW,292,9.2,9.2,68,0.00,CLR,,0.04,WeatherDisplay:10.37,2013-01-11 19:16:00,
2013-01-11 14:18:00,44.8,34.9,29.81,West,270,9.2,9.2,68,0.00,CLR,,0.04,WeatherDisplay:10.37,2013-01-11 19:18:00,
2013-01-11 14:20:00,44.8,35.2,29.81,WSW,248,8.1,8.1,69,0.00,CLR,,0.04,WeatherDisplay:10.37,2013-01-11 19:20:00,
2013-01-11 14:21:00,44.8,35.2,29.81,WNW,292,6.2,6.4,69,0.00,CLR,,0.04,WeatherDisplay:10.37,2013-01-11 19:21:00,
2013-01-11 14:23:00,44.6,35.4,29.81,WSW,248,9.2,9.2,70,0.00,CLR,,0.04,WeatherDisplay:10.37,2013-01-11 19:23:00,
2013-01-11 14:26:00,44.4,36.0,29.81,WSW,248,8.1,8.1,72,0.00,CLR,,0.04,WeatherDisplay:10.37,2013-01-11 19:26:00,
2013-01-11 14:28:00,44.2,36.5,29.81,NW,315,10.4,10.4,74,0.00,CLR,,0.04,WeatherDisplay:10.37,2013-01-11 19:28:00,
2013-01-11 14:31:00,43.9,37.1,29.81,WSW,248,8.1,8.1,77,0.00,CLR,,0.04,WeatherDisplay:10.37,2013-01-11 19:31:00,
2013-01-11 14:34:00,43.5,37.8,29.81,SW,225,6.9,6.9,80,0.00,CLR,,0.04,WeatherDisplay:10.37,2013-01-11 19:34:00,
2013-01-11 14:36:00,43.5,38.1,29.81,WNW,292,10.4,10.4,81,0.00,CLR,,0.04,WeatherDisplay:10.37,2013-01-11 19:36:00,
2013-01-11 14:37:00,43.5,38.4,29.81,WNW,292,10.4,10.4,82,0.00,CLR,,0.04,WeatherDisplay:10.37,2013-01-11 19:37:00,
2013-01-11 14:39:00,43.3,38.5,29.81,WSW,248,6.9,6.9,83,0.00,CLR,,0.04,WeatherDisplay:10.37,2013-01-11 19:39:00,
2013-01-11 14:41:00,43.3,38.8,29.78,West,270,8.1,8.1,84,0.00,CLR,,0.04,WeatherDisplay:10.37,2013-01-11 19:41:00,
2013-01-11 14:42:00,43.3,38.8,29.78,NNW,338,10.4,10.4,84,0.00,CLR,,0.04,WeatherDisplay:10.37,2013-01-11 19:42:00,
2013-01-11 14:44:00,43.5,39.0,29.78,NW,315,9.2,9.2,84,0.00,CLR,,0.04,WeatherDisplay:10.37,2013-01-11 19:44:00,
2013-01-11 14:46:00,43.5,39.0,29.78,WSW,248,9.2,9.2,84,0.00,CLR,,0.04,WeatherDisplay:10.37,2013-01-11 19:46:00,
2013-01-11 14:47:00,43.7,39.2,29.78,WNW,292,8.1,8.1,84,0.00,CLR,,0.04,WeatherDisplay:10.37,2013-01-11 19:47:00,
2013-01-11 14:49:00,43.7,39.2,29.78,SSW,202,11.5,11.5,84,0.00,CLR,,0.04,WeatherDisplay:10.37,2013-01-11 19:49:00,
2013-01-11 14:51:00,43.9,39.1,29.78,West,270,17.3,17.3,83,0.00,CLR,,0.04,WeatherDisplay:10.37,2013-01-11 19:51:00,
2013-01-11 14:53:00,44.1,39.2,29.78,WNW,292,17.3,17.3,83,0.00,CLR,,0.04,WeatherDisplay:10.37,2013-01-11 19:53:00,
2013-01-11 14:55:00,44.1,39.2,29.78,WNW,292,6.4,6.4,83,0.00,CLR,,0.04,WeatherDisplay:10.37,2013-01-11 19:55:00,
2013-01-11 14:56:00,44.1,38.9,29.78,WSW,248,13.8,13.8,82,0.00,CLR,,0.04,WeatherDisplay:10.37,2013-01-11 19:56:00,
2013-01-11 14:58:00,44.1,38.9,29.78,WSW,248,10.4,10.4,82,0.00,CLR,,0.04,WeatherDisplay:10.37,2013-01-11 19:58:00,
2013-01-11 15:00:00,43.9,39.1,29.78,WSW,248,10.4,10.4,83,0.00,CLR,,0.04,WeatherDisplay:10.37,2013-01-11 20:00:00,
2013-01-11 15:02:00,43.9,39.4,29.78,WSW,248,6.9,6.9,84,0.00,CLR,,0.04,WeatherDisplay:10.37,2013-01-11 20:02:00,
2013-01-11 15:03:00,43.7,39.2,29.78,SW,225,5.8,5.8,84,0.00,CLR,,0.04,WeatherDisplay:10.37,2013-01-11 20:03:00,
2013-01-11 15:05:00,43.5,39.3,29.78,WSW,248,6.9,6.9,85,0.00,CLR,,0.04,WeatherDisplay:10.37,2013-01-11 20:05:00,
2013-01-11 15:07:00,43.5,39.3,29.78,WSW,248,8.1,8.1,85,0.00,CLR,,0.04,WeatherDisplay:10.37,2013-01-11 20:07:00,
2013-01-11 15:08:00,43.3,39.4,29.78,WNW,292,8.1,8.1,86,0.00,CLR,,0.04,WeatherDisplay:10.37,2013-01-11 20:08:00,
2013-01-11 15:10:00,43.2,39.6,29.78,WNW,292,8.1,8.1,87,0.00,CLR,,0.04,WeatherDisplay:10.37,2013-01-11 20:10:00,
2013-01-11 15:12:00,43.2,39.6,29.78,WNW,292,6.9,6.9,87,0.00,CLR,,0.04,WeatherDisplay:10.37,2013-01-11 20:12:00,
2013-01-11 15:13:00,43.2,39.6,29.78,SW,225,9.2,9.2,87,0.00,CLR,,0.04,WeatherDisplay:10.37,2013-01-11 20:13:00,
2013-01-11 15:16:00,43.0,39.7,29.78,West,270,5.8,6.4,88,0.00,CLR,,0.04,WeatherDisplay:10.37,2013-01-11 20:16:00,
2013-01-11 15:17:00,43.0,39.7,29.78,WSW,248,5.8,5.8,88,0.00,CLR,,0.04,WeatherDisplay:10.37,2013-01-11 20:17:00,
2013-01-11 15:18:00,43.0,39.7,29.78,WSW,248,5.8,5.8,88,0.00,CLR,,0.04,WeatherDisplay:10.37,2013-01-11 20:18:00,
2013-01-11 15:19:00,43.0,39.7,29.78,WNW,292,8.1,8.1,88,0.00,CLR,,0.04,WeatherDisplay:10.37,2013-01-11 20:19:00,
2013-01-11 15:21:00,42.8,39.5,29.78,NW,315,9.2,9.2,88,0.00,CLR,,0.04,WeatherDisplay:10.37,2013-01-11 20:21:00,
2013-01-11 15:22:00,42.8,39.5,29.78,West,270,9.2,9.2,88,0.00,CLR,,0.04,WeatherDisplay:10.37,2013-01-11 20:22:00,
2013-01-11 15:23:00,42.8,39.5,29.78,NW,315,8.1,8.1,88,0.00,CLR,,0.04,WeatherDisplay:10.37,2013-01-11 20:23:00,
2013-01-11 15:24:00,42.8,39.5,29.78,West,270,8.1,8.1,88,0.00,CLR,,0.04,WeatherDisplay:10.37,2013-01-11 20:24:00,
2013-01-11 15:26:00,42.8,39.5,29.81,NNW,338,11.8,11.8,88,0.00,CLR,,0.04,WeatherDisplay:10.37,2013-01-11 20:26:00,
2013-01-11 15:27:00,42.8,39.5,29.81,West,270,11.5,11.5,88,0.00,CLR,,0.04,WeatherDisplay:10.37,2013-01-11 20:27:00,
2013-01-11 15:28:00,42.8,39.5,29.81,West,270,10.4,10.4,88,0.00,CLR,,0.04,WeatherDisplay:10.37,2013-01-11 20:28:00,
2013-01-11 15:29:00,42.8,39.5,29.81,WSW,248,15.0,15.0,88,0.00,CLR,,0.04,WeatherDisplay:10.37,2013-01-11 20:29:00,
2013-01-11 15:31:00,42.8,39.5,29.81,West,270,10.4,10.4,88,0.00,CLR,,0.04,WeatherDisplay:10.37,2013-01-11 20:31:00,
2013-01-11 15:32:00,42.6,39.6,29.81,WNW,292,8.1,8.1,89,0.00,CLR,,0.04,WeatherDisplay:10.37,2013-01-11 20:32:00,
2013-01-11 15:34:00,42.6,39.6,29.81,WSW,248,8.5,8.5,89,0.00,CLR,,0.08,WeatherDisplay:10.37,2013-01-11 20:34:00,
2013-01-11 15:36:00,42.8,40.1,29.81,NW,315,10.4,10.4,90,0.04,RA,,0.08,WeatherDisplay:10.37,2013-01-11 20:36:00,
2013-01-11 15:37:00,42.8,40.1,29.81,West,270,10.4,10.4,90,0.04,RA,,0.08,WeatherDisplay:10.37,2013-01-11 20:37:00,
2013-01-11 15:39:00,42.6,40.2,29.81,West,270,9.2,9.2,91,0.04,RA,,0.08,WeatherDisplay:10.37,2013-01-11 20:39:00,
2013-01-11 15:41:00,42.6,40.2,29.78,NNW,338,15.0,15.0,91,0.04,RA,,0.08,WeatherDisplay:10.37,2013-01-11 20:41:00,
2013-01-11 15:43:00,42.6,40.5,29.78,NW,315,8.1,8.1,92,0.04,RA,,0.08,WeatherDisplay:10.37,2013-01-11 20:43:00,
2013-01-11 15:44:00,42.6,40.5,29.78,WSW,248,11.5,11.5,92,0.04,,,0.08,WeatherDisplay:10.37,2013-01-11 20:44:00,
2013-01-11 15:46:00,42.6,40.5,29.78,WSW,248,11.5,11.5,92,0.04,CLR,,0.08,WeatherDisplay:10.37,2013-01-11 20:46:00,
2013-01-11 15:48:00,42.4,40.3,29.78,WSW,248,8.1,8.1,92,0.04,CLR,,0.08,WeatherDisplay:10.37,2013-01-11 20:48:00,
2013-01-11 15:49:00,42.4,40.3,29.78,West,270,8.1,8.1,92,0.04,CLR,,0.08,WeatherDisplay:10.37,2013-01-11 20:49:00,
2013-01-11 15:52:00,42.4,40.6,29.78,WNW,292,5.8,5.8,93,0.04,CLR,,0.08,WeatherDisplay:10.37,2013-01-11 20:52:00,
2013-01-11 15:53:00,42.3,40.4,29.78,WSW,248,6.2,6.2,93,0.04,CLR,,0.08,WeatherDisplay:10.37,2013-01-11 20:53:00,
2013-01-11 15:54:00,42.3,40.4,29.78,WSW,248,5.8,5.8,93,0.04,CLR,,0.08,WeatherDisplay:10.37,2013-01-11 20:54:00,
2013-01-11 15:55:00,42.3,40.4,29.78,WSW,248,5.8,5.8,93,0.04,CLR,,0.08,WeatherDisplay:10.37,2013-01-11 20:55:00,
2013-01-11 15:57:00,42.3,40.4,29.78,WSW,248,5.8,5.8,93,0.04,CLR,,0.08,WeatherDisplay:10.37,2013-01-11 20:57:00,
2013-01-11 15:58:00,42.3,40.4,29.78,WSW,248,5.8,5.8,93,0.04,CLR,,0.08,WeatherDisplay:10.37,2013-01-11 20:58:00,
2013-01-11 15:59:00,42.3,40.4,29.78,WSW,248,5.8,5.8,93,0.04,CLR,,0.08,WeatherDisplay:10.37,2013-01-11 20:59:00,
2013-01-11 16:00:00,42.3,40.4,29.78,SW,225,5.8,5.8,93,0.04,CLR,,0.08,WeatherDisplay:10.37,2013-01-11 21:00:00,
2013-01-11 16:02:00,42.3,40.7,29.78,NNW,338,8.1,8.1,94,0.04,CLR,,0.08,WeatherDisplay:10.37,2013-01-11 21:02:00,
2013-01-11 16:03:00,42.1,40.5,29.78,WSW,248,8.1,8.1,94,0.04,CLR,,0.08,WeatherDisplay:10.37,2013-01-11 21:03:00,
2013-01-11 16:04:00,42.1,40.5,29.78,WSW,248,5.8,5.8,94,0.04,CLR,,0.08,WeatherDisplay:10.37,2013-01-11 21:04:00,
2013-01-11 16:05:00,42.1,40.5,29.78,WNW,292,4.6,4.6,94,0.04,CLR,,0.08,WeatherDisplay:10.37,2013-01-11 21:05:00,
2013-01-11 16:07:00,41.9,40.3,29.78,WSW,248,4.6,4.6,94,0.04,CLR,,0.08,WeatherDisplay:10.37,2013-01-11 21:07:00,
2013-01-11 16:08:00,42.1,40.5,29.78,WSW,248,5.8,5.8,94,0.04,CLR,,0.08,WeatherDisplay:10.37,2013-01-11 21:08:00,
2013-01-11 16:09:00,41.9,40.3,29.78,WSW,248,4.6,4.6,94,0.04,CLR,,0.08,WeatherDisplay:10.37,2013-01-11 21:09:00,
2013-01-11 16:10:00,41.9,40.3,29.78,WSW,248,4.6,4.6,94,0.04,CLR,,0.08,WeatherDisplay:10.37,2013-01-11 21:10:00,
2013-01-11 16:12:00,41.7,40.1,29.78,WSW,248,5.8,5.8,94,0.04,CLR,,0.08,WeatherDisplay:10.37,2013-01-11 21:12:00,
2013-01-11 16:14:00,41.7,40.1,29.78,WNW,292,4.6,4.6,94,0.04,CLR,,0.08,WeatherDisplay:10.37,2013-01-11 21:14:00,
2013-01-11 16:15:00,41.7,40.1,29.78,West,270,3.5,4.3,94,0.04,CLR,,0.08,WeatherDisplay:10.37,2013-01-11 21:15:00,
2013-01-11 16:17:00,41.7,40.4,29.78,NNW,338,6.9,6.9,95,0.04,CLR,,0.08,WeatherDisplay:10.37,2013-01-11 21:17:00,
2013-01-11 16:19:00,41.7,40.4,29.78,WNW,292,5.8,5.8,95,0.04,CLR,,0.08,WeatherDisplay:10.37,2013-01-11 21:19:00,
2013-01-11 16:20:00,41.7,40.4,29.78,WSW,248,6.9,6.9,95,0.04,CLR,,0.08,WeatherDisplay:10.37,2013-01-11 21:20:00,
2013-01-11 16:22:00,41.7,40.4,29.78,WNW,292,5.8,5.8,95,0.04,CLR,,0.08,WeatherDisplay:10.37,2013-01-11 21:22:00,
2013-01-11 16:24:00,41.7,40.4,29.78,WSW,248,3.8,0.0,95,0.04,CLR,,0.08,WeatherDisplay:10.37,2013-01-11 21:24:00,
2013-01-11 16:25:00,41.7,40.4,29.78,West,270,3.5,3.5,95,0.04,CLR,,0.08,WeatherDisplay:10.37,2013-01-11 21:25:00,
2013-01-11 16:27:00,41.7,40.4,29.81,WNW,292,4.6,4.6,95,0.08,RA,,0.12,WeatherDisplay:10.37,2013-01-11 21:27:00,
2013-01-11 16:29:00,41.7,40.7,29.81,West,270,8.1,8.1,96,0.08,RA,,0.12,WeatherDisplay:10.37,2013-01-11 21:29:00,
2013-01-11 16:30:00,41.7,40.7,29.81,WSW,248,6.9,6.9,96,0.08,RA,,0.12,WeatherDisplay:10.37,2013-01-11 21:30:00,
2013-01-11 16:31:00,41.7,40.7,29.81,West,270,6.9,6.9,96,0.08,RA,,0.12,WeatherDisplay:10.37,2013-01-11 21:31:00,
2013-01-11 16:32:00,41.7,40.7,29.81,West,270,6.9,6.9,96,0.08,RA,,0.12,WeatherDisplay:10.37,2013-01-11 21:32:00,
2013-01-11 16:34:00,41.7,40.7,29.81,WSW,248,3.5,3.5,96,0.04,RA,,0.12,WeatherDisplay:10.37,2013-01-11 21:34:00,
2013-01-11 16:35:00,41.7,40.7,29.81,WSW,248,3.6,3.6,96,0.04,RA,,0.12,WeatherDisplay:10.37,2013-01-11 21:35:00,
2013-01-11 16:36:00,41.7,40.7,29.81,NW,315,4.6,4.6,96,0.04,RA,,0.12,WeatherDisplay:10.37,2013-01-11 21:36:00,
2013-01-11 16:37:00,41.7,40.7,29.81,WSW,248,5.8,5.8,96,0.04,,,0.12,WeatherDisplay:10.37,2013-01-11 21:37:00,
2013-01-11 16:39:00,41.9,40.8,29.81,WSW,248,5.8,5.8,96,0.04,CLR,,0.12,WeatherDisplay:10.37,2013-01-11 21:39:00,
2013-01-11 16:40:00,41.9,40.8,29.81,WSW,248,5.8,5.8,96,0.04,CLR,,0.12,WeatherDisplay:10.37,2013-01-11 21:40:00,
2013-01-11 16:41:00,41.9,40.8,29.81,West,270,5.8,5.8,96,0.04,CLR,,0.12,WeatherDisplay:10.37,2013-01-11 21:41:00,
2013-01-11 16:42:00,41.9,40.8,29.81,WSW,248,4.6,4.6,96,0.04,CLR,,0.12,WeatherDisplay:10.37,2013-01-11 21:42:00,
2013-01-11 16:44:00,42.1,41.0,29.81,WSW,248,9.7,9.7,96,0.04,CLR,,0.12,WeatherDisplay:10.37,2013-01-11 21:44:00,
2013-01-11 16:45:00,42.1,41.0,29.81,WSW,248,10.7,10.7,96,0.04,CLR,,0.12,WeatherDisplay:10.37,2013-01-11 21:45:00,
2013-01-11 16:46:00,42.1,41.0,29.81,WSW,248,10.4,10.4,96,0.04,CLR,,0.12,WeatherDisplay:10.37,2013-01-11 21:46:00,
2013-01-11 16:47:00,42.1,41.0,29.81,WSW,248,10.4,10.4,96,0.04,CLR,,0.12,WeatherDisplay:10.37,2013-01-11 21:47:00,
2013-01-11 16:49:00,42.3,40.9,29.81,WNW,292,9.2,9.2,95,0.04,CLR,,0.12,WeatherDisplay:10.37,2013-01-11 21:49:00,
2013-01-11 16:51:00,42.3,40.9,29.81,West,270,13.7,13.7,95,0.04,CLR,,0.12,WeatherDisplay:10.37,2013-01-11 21:51:00,
2013-01-11 16:52:00,42.3,40.7,29.81,WNW,292,13.8,13.8,94,0.04,CLR,,0.12,WeatherDisplay:10.37,2013-01-11 21:52:00,
2013-01-11 16:55:00,42.4,40.8,29.81,West,270,10.4,10.4,94,0.04,CLR,,0.12,WeatherDisplay:10.37,2013-01-11 21:55:00,
2013-01-11 16:56:00,42.4,40.6,29.81,West,270,11.5,11.5,93,0.04,CLR,,0.12,WeatherDisplay:10.37,2013-01-11 21:56:00,
2013-01-11 16:57:00,42.4,40.6,29.81,West,270,11.5,11.5,93,0.04,CLR,,0.12,WeatherDisplay:10.37,2013-01-11 21:57:00,
2013-01-11 17:00:00,42.6,40.2,29.81,West,270,8.1,8.1,91,0.04,CLR,,0.12,WeatherDisplay:10.37,2013-01-11 22:00:00,
2013-01-11 17:01:00,42.6,39.9,29.81,West,270,6.9,6.9,90,0.04,CLR,,0.12,WeatherDisplay:10.37,2013-01-11 22:01:00,
2013-01-11 17:03:00,42.8,39.5,29.81,WNW,292,10.4,10.4,88,0.04,CLR,,0.12,WeatherDisplay:10.37,2013-01-11 22:03:00,
2013-01-11 17:05:00,42.6,39.3,29.81,WNW,292,5.9,5.9,88,0.04,CLR,,0.12,WeatherDisplay:10.37,2013-01-11 22:05:00,
2013-01-11 17:06:00,42.8,39.2,29.81,WNW,292,11.8,11.8,87,0.04,CLR,,0.12,WeatherDisplay:10.37,2013-01-11 22:06:00,
2013-01-11 17:07:00,42.8,39.2,29.81,WNW,292,11.5,11.5,87,0.04,CLR,,0.12,WeatherDisplay:10.37,2013-01-11 22:07:00,
2013-01-11 17:08:00,42.8,38.9,29.81,West,270,10.4,10.4,86,0.04,CLR,,0.12,WeatherDisplay:10.37,2013-01-11 22:08:00,
2013-01-11 17:10:00,42.8,38.6,29.81,NNW,338,8.1,8.1,85,0.04,CLR,,0.12,WeatherDisplay:10.37,2013-01-11 22:10:00,
2013-01-11 17:11:00,42.8,38.6,29.81,WSW,248,6.9,6.9,85,0.04,CLR,,0.12,WeatherDisplay:10.37,2013-01-11 22:11:00,
2013-01-11 17:12:00,42.8,38.6,29.81,WNW,292,6.9,6.9,85,0.04,CLR,,0.12,WeatherDisplay:10.37,2013-01-11 22:12:00,
2013-01-11 17:13:00,42.8,38.6,29.81,West,270,9.2,9.2,85,0.04,CLR,,0.12,WeatherDisplay:10.37,2013-01-11 22:13:00,
2013-01-11 17:15:00,42.8,38.3,29.81,SW,225,11.5,11.5,84,0.04,CLR,,0.12,WeatherDisplay:10.37,2013-01-11 22:15:00,
2013-01-11 17:16:00,42.8,38.3,29.81,WNW,292,9.8,9.8,84,0.04,CLR,,0.12,WeatherDisplay:10.37,2013-01-11 22:16:00,
2013-01-11 17:17:00,42.8,38.3,29.81,WNW,292,9.2,9.2,84,0.04,CLR,,0.12,WeatherDisplay:10.37,2013-01-11 22:17:00,
2013-01-11 17:18:00,42.8,38.3,29.81,WNW,292,12.7,12.7,84,0.04,CLR,,0.12,WeatherDisplay:10.37,2013-01-11 22:18:00,
2013-01-11 17:20:00,42.8,38.0,29.81,NW,315,8.1,8.1,83,0.04,CLR,,0.12,WeatherDisplay:10.37,2013-01-11 22:20:00,
2013-01-11 17:21:00,42.8,38.0,29.81,West,270,11.5,11.5,83,0.04,CLR,,0.12,WeatherDisplay:10.37,2013-01-11 22:21:00,
2013-01-11 17:22:00,42.8,38.0,29.81,West,270,16.1,16.1,83,0.04,CLR,,0.12,WeatherDisplay:10.37,2013-01-11 22:22:00,
2013-01-11 17:23:00,42.8,38.0,29.81,West,270,9.2,9.2,83,0.04,CLR,,0.12,WeatherDisplay:10.37,2013-01-11 22:23:00,
2013-01-11 17:25:00,42.8,38.0,29.78,WSW,248,8.5,8.5,83,0.04,CLR,,0.12,WeatherDisplay:10.37,2013-01-11 22:25:00,
2013-01-11 17:26:00,42.8,38.0,29.78,WNW,292,8.1,8.1,83,0.04,CLR,,0.12,WeatherDisplay:10.37,2013-01-11 22:26:00,
2013-01-11 17:27:00,42.8,38.0,29.78,NNW,338,8.1,8.1,83,0.04,CLR,,0.12,WeatherDisplay:10.37,2013-01-11 22:27:00,
2013-01-11 17:28:00,42.8,38.0,29.78,NW,315,6.9,6.9,83,0.00,CLR,,0.12,WeatherDisplay:10.37,2013-01-11 22:28:00,
2013-01-11 17:30:00,42.8,38.0,29.78,NW,315,10.4,10.4,83,0.00,CLR,,0.12,WeatherDisplay:10.37,2013-01-11 22:30:00,
2013-01-11 17:32:00,42.8,37.7,29.78,NNW,338,9.2,9.2,82,0.00,CLR,,0.12,WeatherDisplay:10.37,2013-01-11 22:32:00,
2013-01-11 17:33:00,42.6,37.8,29.78,West,270,9.2,9.2,83,0.00,CLR,,0.12,WeatherDisplay:10.37,2013-01-11 22:33:00,
2013-01-11 17:35:00,42.6,37.8,29.78,WSW,248,10.4,10.4,83,0.00,CLR,,0.12,WeatherDisplay:10.37,2013-01-11 22:35:00,
2013-01-11 17:37:00,42.4,37.6,29.78,WNW,292,8.1,8.1,83,0.00,CLR,,0.12,WeatherDisplay:10.37,2013-01-11 22:37:00,
2013-01-11 17:38:00,42.4,37.6,29.78,WNW,292,8.1,8.1,83,0.00,CLR,,0.12,WeatherDisplay:10.37,2013-01-11 22:38:00,
2013-01-11 17:40:00,42.4,37.9,29.81,WNW,292,6.9,6.9,84,0.00,CLR,,0.12,WeatherDisplay:10.37,2013-01-11 22:40:00,
2013-01-11 17:42:00,42.4,37.9,29.81,WNW,292,5.8,5.8,84,0.00,CLR,,0.12,WeatherDisplay:10.37,2013-01-11 22:42:00,
2013-01-11 17:43:00,42.4,37.9,29.81,WNW,292,5.8,5.8,84,0.00,CLR,,0.12,WeatherDisplay:10.37,2013-01-11 22:43:00,
2013-01-11 17:45:00,42.4,37.9,29.81,WNW,292,4.6,4.6,84,0.00,CLR,,0.12,WeatherDisplay:10.37,2013-01-11 22:45:00,
2013-01-11 17:47:00,42.3,37.8,29.81,NNW,338,3.8,3.8,84,0.00,CLR,,0.12,WeatherDisplay:10.37,2013-01-11 22:47:00,
2013-01-11 17:48:00,42.3,37.8,29.81,WSW,248,3.5,3.5,84,0.00,CLR,,0.12,WeatherDisplay:10.37,2013-01-11 22:48:00,
2013-01-11 17:50:00,42.3,37.8,29.81,WSW,248,3.5,3.5,84,0.00,CLR,,0.12,WeatherDisplay:10.37,2013-01-11 22:50:00,
2013-01-11 17:52:00,42.3,37.8,29.81,WNW,292,9.2,9.2,84,0.00,CLR,,0.12,WeatherDisplay:10.37,2013-01-11 22:52:00,
2013-01-11 17:53:00,42.3,37.8,29.81,WNW,292,4.6,4.6,84,0.00,CLR,,0.12,WeatherDisplay:10.37,2013-01-11 22:53:00,
2013-01-11 17:54:00,42.3,38.1,29.81,West,270,4.6,4.6,85,0.00,CLR,,0.12,WeatherDisplay:10.37,2013-01-11 22:54:00,
2013-01-11 17:56:00,42.3,38.1,29.78,WSW,248,5.8,5.8,85,0.00,CLR,,0.12,WeatherDisplay:10.37,2013-01-11 22:56:00,
2013-01-11 17:57:00,42.3,38.1,29.78,WSW,248,4.7,4.7,85,0.00,CLR,,0.12,WeatherDisplay:10.37,2013-01-11 22:57:00,
2013-01-11 17:58:00,42.3,38.1,29.78,WSW,248,4.6,4.6,85,0.00,CLR,,0.12,WeatherDisplay:10.37,2013-01-11 22:58:00,
2013-01-11 17:59:00,42.3,38.1,29.78,SSW,202,4.6,4.6,85,0.00,CLR,,0.12,WeatherDisplay:10.37,2013-01-11 22:59:00,
2013-01-11 18:01:00,42.3,38.1,29.78,WSW,248,8.1,8.1,85,0.00,CLR,,0.12,WeatherDisplay:10.37,2013-01-11 23:01:00,
2013-01-11 18:03:00,42.3,38.1,29.78,West,270,4.6,4.6,85,0.00,CLR,,0.12,WeatherDisplay:10.37,2013-01-11 23:03:00,
2013-01-11 18:04:00,42.3,38.1,29.78,WSW,248,3.5,3.5,85,0.00,CLR,,0.12,WeatherDisplay:10.37,2013-01-11 23:04:00,
2013-01-11 18:06:00,42.3,38.1,29.78,WNW,292,5.8,5.8,85,0.00,CLR,,0.12,WeatherDisplay:10.37,2013-01-11 23:06:00,
2013-01-11 18:08:00,42.3,38.1,29.78,WSW,248,10.4,10.4,85,0.00,CLR,,0.12,WeatherDisplay:10.37,2013-01-11 23:08:00,
2013-01-11 18:09:00,42.3,38.1,29.78,West,270,6.9,6.9,85,0.00,CLR,,0.12,WeatherDisplay:10.37,2013-01-11 23:09:00,
2013-01-11 18:11:00,42.4,38.2,29.81,NW,315,5.8,5.8,85,0.00,CLR,,0.12,WeatherDisplay:10.37,2013-01-11 23:11:00,
2013-01-11 18:13:00,42.4,38.2,29.81,West,270,5.8,5.8,85,0.00,CLR,,0.12,WeatherDisplay:10.37,2013-01-11 23:13:00,
2013-01-11 18:14:00,42.4,38.2,29.81,West,270,4.6,4.6,85,0.00,CLR,,0.12,WeatherDisplay:10.37,2013-01-11 23:14:00,
2013-01-11 18:16:00,42.4,38.2,29.81,West,270,8.1,8.1,85,0.00,CLR,,0.12,WeatherDisplay:10.37,2013-01-11 23:16:00,
2013-01-11 18:18:00,42.4,38.2,29.81,West,270,5.8,5.8,85,0.00,CLR,,0.12,WeatherDisplay:10.37,2013-01-11 23:18:00,
2013-01-11 18:19:00,42.4,38.2,29.81,WNW,292,5.6,5.6,85,0.00,CLR,,0.12,WeatherDisplay:10.37,2013-01-11 23:19:00,
2013-01-11 18:21:00,42.3,38.1,29.81,WSW,248,3.5,3.5,85,0.00,CLR,,0.12,WeatherDisplay:10.37,2013-01-11 23:21:00,
2013-01-11 18:23:00,42.4,38.2,29.81,West,270,4.6,4.6,85,0.00,CLR,,0.12,WeatherDisplay:10.37,2013-01-11 23:23:00,
2013-01-11 18:24:00,42.4,38.2,29.81,WNW,292,4.6,4.6,85,0.00,CLR,,0.12,WeatherDisplay:10.37,2013-01-11 23:24:00,
2013-01-11 18:26:00,42.3,38.1,29.81,West,270,10.4,10.4,85,0.00,CLR,,0.12,WeatherDisplay:10.37,2013-01-11 23:26:00,
2013-01-11 18:28:00,42.4,38.2,29.81,SSW,202,6.0,6.0,85,0.00,CLR,,0.12,WeatherDisplay:10.37,2013-01-11 23:28:00,
2013-01-11 18:29:00,42.3,38.1,29.81,WNW,292,5.8,5.8,85,0.00,CLR,,0.12,WeatherDisplay:10.37,2013-01-11 23:29:00,
2013-01-11 18:31:00,42.3,38.1,29.81,WNW,292,4.3,4.3,85,0.00,CLR,,0.12,WeatherDisplay:10.37,2013-01-11 23:31:00,
2013-01-11 18:33:00,42.4,38.2,29.81,WNW,292,6.9,6.9,85,0.00,CLR,,0.12,WeatherDisplay:10.37,2013-01-11 23:33:00,
2013-01-11 18:34:00,42.4,38.2,29.81,West,270,6.9,6.9,85,0.00,CLR,,0.12,WeatherDisplay:10.37,2013-01-11 23:34:00,
2013-01-11 18:36:00,42.4,38.2,29.81,NW,315,6.9,6.9,85,0.00,CLR,,0.12,WeatherDisplay:10.37,2013-01-11 23:36:00,
2013-01-11 18:38:00,42.4,38.2,29.81,SSW,202,9.2,9.2,85,0.00,CLR,,0.12,WeatherDisplay:10.37,2013-01-11 23:38:00,
2013-01-11 18:39:00,42.4,38.2,29.81,West,270,5.8,5.8,85,0.00,CLR,,0.12,WeatherDisplay:10.37,2013-01-11 23:39:00,
2013-01-11 18:41:00,42.4,38.2,29.81,WSW,248,9.2,9.2,85,0.00,CLR,,0.12,WeatherDisplay:10.37,2013-01-11 23:41:00,
2013-01-11 18:43:00,42.6,38.4,29.81,WSW,248,6.0,6.0,85,0.00,CLR,,0.12,WeatherDisplay:10.37,2013-01-11 23:43:00,
2013-01-11 18:44:00,42.6,38.4,29.81,WNW,292,8.1,8.1,85,0.00,CLR,,0.12,WeatherDisplay:10.37,2013-01-11 23:44:00,
2013-01-11 18:46:00,42.6,38.4,29.81,West,270,9.2,9.2,85,0.00,CLR,,0.12,WeatherDisplay:10.37,2013-01-11 23:46:00,
2013-01-11 18:49:00,42.6,38.4,29.81,West,270,4.6,4.6,85,0.00,CLR,,0.12,WeatherDisplay:10.37,2013-01-11 23:49:00,
2013-01-11 18:51:00,42.8,38.3,29.81,West,270,6.9,6.9,84,0.00,CLR,,0.12,WeatherDisplay:10.37,2013-01-11 23:51:00,
2013-01-11 18:54:00,42.8,38.3,29.81,West,270,5.8,5.8,84,0.00,CLR,,0.12,WeatherDisplay:10.37,2013-01-11 23:54:00,
2013-01-11 18:56:00,43.0,38.5,29.81,WNW,292,8.1,8.1,84,0.00,CLR,,0.12,WeatherDisplay:10.37,2013-01-11 23:56:00,
2013-01-11 18:59:00,43.0,38.5,29.81,NW,315,6.2,6.2,84,0.00,CLR,,0.12,WeatherDisplay:10.37,2013-01-11 23:59:00,
2013-01-11 19:01:00,43.2,38.7,29.81,West,270,6.9,6.9,84,0.00,CLR,,0.12,WeatherDisplay:10.37,2013-01-12 00:01:00,
2013-01-11 19:04:00,43.2,38.7,29.81,WNW,292,8.1,8.1,84,0.00,CLR,,0.12,WeatherDisplay:10.37,2013-01-12 00:04:00,
2013-01-11 19:06:00,43.3,38.8,29.81,WSW,248,8.7,8.7,84,0.00,CLR,,0.12,WeatherDisplay:10.37,2013-01-12 00:06:00,
2013-01-11 19:09:00,43.3,38.5,29.81,SW,225,10.4,10.4,83,0.00,CLR,,0.12,WeatherDisplay:10.37,2013-01-12 00:09:00,
2013-01-11 19:11:00,43.3,38.5,29.81,WNW,292,5.8,5.8,83,0.00,CLR,,0.12,WeatherDisplay:10.37,2013-01-12 00:11:00,
2013-01-11 19:14:00,43.5,38.7,29.81,WNW,292,12.7,12.7,83,0.00,CLR,,0.12,WeatherDisplay:10.37,2013-01-12 00:14:00,
2013-01-11 19:16:00,43.7,38.9,29.81,West,270,12.7,12.7,83,0.00,CLR,,0.12,WeatherDisplay:10.37,2013-01-12 00:16:00,
2013-01-11 19:19:00,43.5,38.7,29.81,WNW,292,7.4,7.4,83,0.00,CLR,,0.12,WeatherDisplay:10.37,2013-01-12 00:19:00,
2013-01-11 19:22:00,43.5,38.4,29.81,WNW,292,10.7,10.7,82,0.00,CLR,,0.12,WeatherDisplay:10.37,2013-01-12 00:22:00,
2013-01-11 19:24:00,43.7,38.9,29.81,West,270,8.1,8.1,83,0.00,CLR,,0.12,WeatherDisplay:10.37,2013-01-12 00:24:00,
2013-01-11 19:25:00,43.7,38.9,29.81,NW,315,8.1,8.1,83,0.00,CLR,,0.12,WeatherDisplay:10.37,2013-01-12 00:25:00,
2013-01-11 19:27:00,43.7,38.6,29.81,West,270,10.4,10.4,82,0.00,CLR,,0.12,WeatherDisplay:10.37,2013-01-12 00:27:00,
2013-01-11 19:29:00,43.7,38.6,29.81,WNW,292,7.4,7.4,82,0.00,CLR,,0.12,WeatherDisplay:10.37,2013-01-12 00:29:00,
2013-01-11 19:30:00,43.7,38.9,29.81,West,270,8.7,8.7,83,0.00,CLR,,0.12,WeatherDisplay:10.37,2013-01-12 00:30:00,
2013-01-11 19:32:00,43.7,38.9,29.81,WNW,292,12.8,12.8,83,0.00,CLR,,0.12,WeatherDisplay:10.37,2013-01-12 00:32:00,
2013-01-11 19:34:00,43.9,39.1,29.81,WSW,248,12.7,12.7,83,0.00,CLR,,0.12,WeatherDisplay:10.37,2013-01-12 00:34:00,
2013-01-11 19:35:00,43.9,39.1,29.81,WSW,248,12.7,12.7,83,0.00,CLR,,0.12,WeatherDisplay:10.37,2013-01-12 00:35:00,
2013-01-11 19:37:00,44.1,38.9,29.81,WNW,292,8.1,8.1,82,0.00,CLR,,0.12,WeatherDisplay:10.37,2013-01-12 00:37:00,
2013-01-11 19:39:00,44.1,38.9,29.81,WNW,292,9.2,9.2,82,0.00,CLR,,0.12,WeatherDisplay:10.37,2013-01-12 00:39:00,
2013-01-11 19:40:00,44.1,38.9,29.81,WNW,292,10.4,10.4,82,0.00,CLR,,0.12,WeatherDisplay:10.37,2013-01-12 00:40:00,
2013-01-11 19:42:00,44.2,39.1,29.81,WNW,292,12.7,12.7,82,0.00,CLR,,0.12,WeatherDisplay:10.37,2013-01-12 00:42:00,
2013-01-11 19:45:00,44.2,39.1,29.81,WNW,292,13.8,13.8,82,0.00,CLR,,0.12,WeatherDisplay:10.37,2013-01-12 00:45:00,
2013-01-11 19:47:00,44.2,39.1,29.81,WNW,292,10.4,10.4,82,0.00,CLR,,0.12,WeatherDisplay:10.37,2013-01-12 00:47:00,
2013-01-11 19:50:00,44.2,39.1,29.81,NNW,338,8.1,8.1,82,0.00,CLR,,0.12,WeatherDisplay:10.37,2013-01-12 00:50:00,
2013-01-11 19:52:00,44.2,39.1,29.81,West,270,10.4,10.4,82,0.00,CLR,,0.12,WeatherDisplay:10.37,2013-01-12 00:52:00,
2013-01-11 19:55:00,44.2,39.1,29.81,NNW,338,12.7,12.7,82,0.00,CLR,,0.12,WeatherDisplay:10.37,2013-01-12 00:55:00,
2013-01-11 19:57:00,44.2,39.1,29.81,WNW,292,12.5,12.5,82,0.00,CLR,,0.12,WeatherDisplay:10.37,2013-01-12 00:57:00,
2013-01-11 20:00:00,44.2,39.1,29.81,West,270,8.1,8.1,82,0.00,CLR,,0.12,WeatherDisplay:10.37,2013-01-12 01:00:00,
2013-01-11 20:01:00,44.2,39.1,29.81,WSW,248,10.4,10.4,82,0.00,CLR,,0.12,WeatherDisplay:10.37,2013-01-12 01:01:00,
2013-01-11 20:03:00,44.2,39.1,29.81,WSW,248,10.4,10.4,82,0.00,CLR,,0.12,WeatherDisplay:10.37,2013-01-12 01:03:00,
2013-01-11 20:05:00,44.2,39.4,29.81,NNW,338,8.1,8.1,83,0.00,CLR,,0.12,WeatherDisplay:10.37,2013-01-12 01:05:00,
2013-01-11 20:06:00,44.2,39.1,29.81,WNW,292,8.1,8.1,82,0.00,CLR,,0.12,WeatherDisplay:10.37,2013-01-12 01:06:00,
2013-01-11 20:08:00,44.2,39.4,29.81,NNW,338,7.1,7.1,83,0.00,CLR,,0.12,WeatherDisplay:10.37,2013-01-12 01:08:00,
2013-01-11 20:10:00,44.2,39.4,29.81,NNE,22,10.7,10.7,83,0.00,CLR,,0.12,WeatherDisplay:10.37,2013-01-12 01:10:00,
2013-01-11 20:11:00,44.2,39.4,29.81,West,270,9.2,9.2,83,0.00,CLR,,0.12,WeatherDisplay:10.37,2013-01-12 01:11:00,
2013-01-11 20:13:00,44.2,39.4,29.81,WNW,292,9.2,9.2,83,0.00,CLR,,0.12,WeatherDisplay:10.37,2013-01-12 01:13:00,
2013-01-11 20:15:00,44.1,39.2,29.81,West,270,12.7,12.7,83,0.00,CLR,,0.12,WeatherDisplay:10.37,2013-01-12 01:15:00,
2013-01-11 20:16:00,44.2,39.4,29.81,WNW,292,12.7,12.7,83,0.00,CLR,,0.12,WeatherDisplay:10.37,2013-01-12 01:16:00,
2013-01-11 20:18:00,44.2,39.4,29.81,WSW,248,13.8,13.8,83,0.00,CLR,,0.12,WeatherDisplay:10.37,2013-01-12 01:18:00,
2013-01-11 20:20:00,44.2,39.4,29.81,NNW,338,10.4,10.4,83,0.00,CLR,,0.12,WeatherDisplay:10.37,2013-01-12 01:20:00,
2013-01-11 20:21:00,44.2,39.4,29.81,WNW,292,10.4,10.4,83,0.00,CLR,,0.12,WeatherDisplay:10.37,2013-01-12 01:21:00,
2013-01-11 20:23:00,44.2,39.4,29.81,WSW,248,13.8,13.8,83,0.00,CLR,,0.12,WeatherDisplay:10.37,2013-01-12 01:23:00,
2013-01-11 20:26:00,44.2,39.4,29.84,NNW,338,9.2,9.2,83,0.00,CLR,,0.12,WeatherDisplay:10.37,2013-01-12 01:26:00,
2013-01-11 20:28:00,44.2,39.4,29.84,West,270,10.4,10.4,83,0.00,CLR,,0.12,WeatherDisplay:10.37,2013-01-12 01:28:00,
2013-01-11 20:31:00,44.4,39.6,29.84,WNW,292,13.8,13.8,83,0.00,CLR,,0.12,WeatherDisplay:10.37,2013-01-12 01:31:00,
2013-01-11 20:34:00,44.2,39.7,29.84,WSW,248,10.4,10.4,84,0.00,CLR,,0.12,WeatherDisplay:10.37,2013-01-12 01:34:00,
2013-01-11 20:36:00,44.4,39.9,29.84,WNW,292,12.7,12.7,84,0.00,CLR,,0.12,WeatherDisplay:10.37,2013-01-12 01:36:00,
2013-01-11 20:39:00,44.4,39.9,29.84,WSW,248,15.0,15.0,84,0.00,CLR,,0.12,WeatherDisplay:10.37,2013-01-12 01:39:00,
2013-01-11 20:41:00,44.4,39.6,29.84,West,270,11.5,11.5,83,0.00,CLR,,0.12,WeatherDisplay:10.37,2013-01-12 01:41:00,
2013-01-11 20:42:00,44.4,39.6,29.84,WNW,292,10.4,10.4,83,0.00,CLR,,0.12,WeatherDisplay:10.37,2013-01-12 01:42:00,
2013-01-11 20:44:00,44.4,39.6,29.84,WSW,248,10.4,10.4,83,0.00,CLR,,0.12,WeatherDisplay:10.37,2013-01-12 01:44:00,
2013-01-11 20:46:00,44.2,39.4,29.84,WSW,248,5.8,5.8,83,0.00,CLR,,0.12,WeatherDisplay:10.37,2013-01-12 01:46:00,
2013-01-11 20:47:00,44.2,39.4,29.84,West,270,5.8,5.8,83,0.00,CLR,,0.12,WeatherDisplay:10.37,2013-01-12 01:47:00,
2013-01-11 20:49:00,44.2,39.4,29.84,WSW,248,6.9,6.9,83,0.00,CLR,,0.12,WeatherDisplay:10.37,2013-01-12 01:49:00,
2013-01-11 20:51:00,44.2,39.4,29.84,West,270,8.1,8.1,83,0.00,CLR,,0.12,WeatherDisplay:10.37,2013-01-12 01:51:00,
2013-01-11 20:52:00,44.2,39.4,29.84,West,270,8.1,8.1,83,0.00,CLR,,0.12,WeatherDisplay:10.37,2013-01-12 01:52:00,
2013-01-11 20:54:00,44.1,39.2,29.84,West,270,9.2,9.2,83,0.00,CLR,,0.12,WeatherDisplay:10.37,2013-01-12 01:54:00,
2013-01-11 20:56:00,44.2,39.4,29.84,WSW,248,10.4,10.4,83,0.00,CLR,,0.12,WeatherDisplay:10.37,2013-01-12 01:56:00,
2013-01-11 20:57:00,44.2,39.4,29.84,WNW,292,6.9,6.9,83,0.00,CLR,,0.12,WeatherDisplay:10.37,2013-01-12 01:57:00,
2013-01-11 20:59:00,44.2,39.4,29.84,West,270,12.7,12.7,83,0.00,CLR,,0.12,WeatherDisplay:10.37,2013-01-12 01:59:00,
2013-01-11 21:01:00,44.1,39.2,29.84,WNW,292,6.9,6.9,83,0.00,CLR,,0.12,WeatherDisplay:10.37,2013-01-12 02:01:00,
2013-01-11 21:02:00,44.2,39.4,29.84,WNW,292,6.9,6.9,83,0.00,CLR,,0.12,WeatherDisplay:10.37,2013-01-12 02:02:00,
2013-01-11 21:04:00,44.1,39.2,29.84,WSW,248,10.4,10.4,83,0.00,CLR,,0.12,WeatherDisplay:10.37,2013-01-12 02:04:00,
2013-01-11 21:06:00,44.1,39.2,29.84,WNW,292,11.8,11.8,83,0.00,CLR,,0.12,WeatherDisplay:10.37,2013-01-12 02:06:00,
2013-01-11 21:07:00,44.1,39.5,29.84,NW,315,15.4,15.4,84,0.00,CLR,,0.12,WeatherDisplay:10.37,2013-01-12 02:07:00,
2013-01-11 21:08:00,44.1,39.5,29.84,NNW,338,15.0,15.0,84,0.00,CLR,,0.12,WeatherDisplay:10.37,2013-01-12 02:08:00,
2013-01-11 21:09:00,44.1,39.5,29.84,North,0,5.9,5.9,84,0.00,CLR,,0.12,WeatherDisplay:10.37,2013-01-12 02:09:00,
2013-01-11 21:11:00,44.1,39.5,29.84,WNW,292,15.0,15.0,84,0.00,CLR,,0.12,WeatherDisplay:10.37,2013-01-12 02:11:00,
2013-01-11 21:12:00,44.2,39.7,29.84,WNW,292,12.7,12.7,84,0.00,CLR,,0.12,WeatherDisplay:10.37,2013-01-12 02:12:00,
2013-01-11 21:13:00,44.1,39.5,29.84,WSW,248,10.4,10.4,84,0.00,CLR,,0.12,WeatherDisplay:10.37,2013-01-12 02:13:00,
2013-01-11 21:14:00,44.1,39.5,29.84,WNW,292,8.1,8.1,84,0.00,CLR,,0.12,WeatherDisplay:10.37,2013-01-12 02:14:00,
2013-01-11 21:16:00,44.1,39.5,29.84,WSW,248,8.1,8.1,84,0.00,CLR,,0.12,WeatherDisplay:10.37,2013-01-12 02:16:00,
2013-01-11 21:17:00,44.1,39.5,29.84,West,270,11.5,11.5,84,0.00,CLR,,0.12,WeatherDisplay:10.37,2013-01-12 02:17:00,
2013-01-11 21:19:00,44.1,39.5,29.84,WNW,292,8.1,8.1,84,0.00,CLR,,0.12,WeatherDisplay:10.37,2013-01-12 02:19:00,
2013-01-11 21:21:00,44.2,39.7,29.84,WSW,248,12.7,12.7,84,0.00,CLR,,0.12,WeatherDisplay:10.37,2013-01-12 02:21:00,
2013-01-11 21:22:00,44.1,39.5,29.84,WSW,248,10.4,10.4,84,0.00,CLR,,0.12,WeatherDisplay:10.37,2013-01-12 02:22:00,
2013-01-11 21:24:00,44.1,39.5,29.84,West,270,8.1,8.1,84,0.00,CLR,,0.12,WeatherDisplay:10.37,2013-01-12 02:24:00,
2013-01-11 21:25:00,44.1,39.5,29.84,NW,315,8.1,8.1,84,0.00,CLR,,0.12,WeatherDisplay:10.37,2013-01-12 02:25:00,
2013-01-11 21:27:00,44.1,39.5,29.84,West,270,5.8,5.8,84,0.00,CLR,,0.12,WeatherDisplay:10.37,2013-01-12 02:27:00,
2013-01-11 21:28:00,44.1,39.5,29.84,West,270,12.1,12.1,84,0.00,CLR,,0.12,WeatherDisplay:10.37,2013-01-12 02:28:00,
2013-01-11 21:29:00,44.1,39.5,29.84,WSW,248,11.5,11.5,84,0.00,CLR,,0.12,WeatherDisplay:10.37,2013-01-12 02:29:00,
2013-01-11 21:30:00,44.1,39.5,29.84,West,270,11.5,11.5,84,0.00,CLR,,0.12,WeatherDisplay:10.37,2013-01-12 02:30:00,
2013-01-11 21:32:00,44.1,39.8,29.84,WSW,248,8.1,8.1,85,0.00,CLR,,0.12,WeatherDisplay:10.37,2013-01-12 02:32:00,
2013-01-11 21:33:00,43.9,39.7,29.84,NW,315,6.9,6.9,85,0.00,CLR,,0.12,WeatherDisplay:10.37,2013-01-12 02:33:00,
2013-01-11 21:34:00,44.1,39.8,29.84,WNW,292,9.2,9.2,85,0.00,CLR,,0.12,WeatherDisplay:10.37,2013-01-12 02:34:00,
2013-01-11 21:35:00,44.1,39.8,29.84,West,270,9.2,9.2,85,0.00,CLR,,0.12,WeatherDisplay:10.37,2013-01-12 02:35:00,
2013-01-11 21:37:00,44.1,39.8,29.84,West,270,9.2,9.2,85,0.00,CLR,,0.12,WeatherDisplay:10.37,2013-01-12 02:37:00,
2013-01-11 21:38:00,44.1,39.8,29.84,WNW,292,10.4,10.4,85,0.00,CLR,,0.12,WeatherDisplay:10.37,2013-01-12 02:38:00,
2013-01-11 21:40:00,43.9,39.7,29.84,WNW,292,5.8,5.8,85,0.00,CLR,,0.12,WeatherDisplay:10.37,2013-01-12 02:40:00,
2013-01-11 21:43:00,43.9,39.7,29.81,WNW,292,8.7,8.7,85,0.00,CLR,,0.12,WeatherDisplay:10.37,2013-01-12 02:43:00,
2013-01-11 21:45:00,43.9,39.7,29.81,West,270,5.8,5.8,85,0.00,CLR,,0.12,WeatherDisplay:10.37,2013-01-12 02:45:00,
2013-01-11 21:46:00,43.9,39.7,29.81,West,270,5.8,5.8,85,0.00,CLR,,0.12,WeatherDisplay:10.37,2013-01-12 02:46:00,
2013-01-11 21:48:00,44.1,40.1,29.81,WNW,292,8.1,8.1,86,0.00,CLR,,0.12,WeatherDisplay:10.37,2013-01-12 02:48:00,
2013-01-11 21:50:00,44.1,40.1,29.81,WNW,292,6.9,6.9,86,0.00,CLR,,0.12,WeatherDisplay:10.37,2013-01-12 02:50:00,
2013-01-11 21:51:00,44.1,40.1,29.81,West,270,10.4,10.4,86,0.00,CLR,,0.12,WeatherDisplay:10.37,2013-01-12 02:51:00,
2013-01-11 21:53:00,44.2,40.3,29.81,West,270,11.5,11.5,86,0.00,CLR,,0.12,WeatherDisplay:10.37,2013-01-12 02:53:00,
2013-01-11 21:55:00,44.2,40.3,29.84,WSW,248,10.4,10.4,86,0.00,CLR,,0.12,WeatherDisplay:10.37,2013-01-12 02:55:00,
2013-01-11 21:56:00,44.2,40.3,29.84,WNW,292,5.8,5.8,86,0.00,CLR,,0.12,WeatherDisplay:10.37,2013-01-12 02:56:00,
2013-01-11 21:58:00,44.2,40.3,29.84,NNW,338,5.8,5.8,86,0.00,CLR,,0.12,WeatherDisplay:10.37,2013-01-12 02:58:00,
2013-01-11 21:59:00,44.2,40.3,29.84,WNW,292,10.0,10.0,86,0.00,CLR,,0.12,WeatherDisplay:10.37,2013-01-12 02:59:00,
2013-01-11 22:00:00,44.2,40.3,29.84,WNW,292,10.4,10.4,86,0.00,CLR,,0.12,WeatherDisplay:10.37,2013-01-12 03:00:00,
2013-01-11 22:01:00,44.2,40.3,29.84,West,270,10.7,10.7,86,0.00,CLR,,0.12,WeatherDisplay:10.37,2013-01-12 03:01:00,
2013-01-11 22:03:00,44.2,40.3,29.84,WNW,292,5.8,5.8,86,0.00,CLR,,0.12,WeatherDisplay:10.37,2013-01-12 03:03:00,
2013-01-11 22:04:00,44.4,40.5,29.84,WNW,292,8.5,8.5,86,0.00,CLR,,0.12,WeatherDisplay:10.37,2013-01-12 03:04:00,
2013-01-11 22:05:00,44.4,40.5,29.84,WSW,248,8.1,8.1,86,0.00,CLR,,0.12,WeatherDisplay:10.37,2013-01-12 03:05:00,
2013-01-11 22:06:00,44.4,40.5,29.84,WNW,292,8.1,8.1,86,0.00,CLR,,0.12,WeatherDisplay:10.37,2013-01-12 03:06:00,
2013-01-11 22:08:00,44.4,40.5,29.84,WSW,248,7.8,7.8,86,0.00,CLR,,0.12,WeatherDisplay:10.37,2013-01-12 03:08:00,
2013-01-11 22:09:00,44.4,40.5,29.84,WNW,292,9.2,9.2,86,0.00,CLR,,0.12,WeatherDisplay:10.37,2013-01-12 03:09:00,
2013-01-11 22:10:00,44.6,40.4,29.84,West,270,10.4,10.4,85,0.00,CLR,,0.12,WeatherDisplay:10.37,2013-01-12 03:10:00,
2013-01-11 22:11:00,44.6,40.4,29.84,West,270,10.4,10.4,85,0.00,CLR,,0.12,WeatherDisplay:10.37,2013-01-12 03:11:00,
2013-01-11 22:13:00,44.6,40.4,29.84,West,270,6.9,6.9,85,0.00,CLR,,0.12,WeatherDisplay:10.37,2013-01-12 03:13:00,
2013-01-11 22:14:00,44.6,40.4,29.84,WNW,292,9.2,9.2,85,0.00,CLR,,0.12,WeatherDisplay:10.37,2013-01-12 03:14:00,
2013-01-11 22:15:00,44.6,40.4,29.84,WNW,292,8.1,8.1,85,0.00,CLR,,0.12,WeatherDisplay:10.37,2013-01-12 03:15:00,
2013-01-11 22:16:00,44.6,40.4,29.84,WNW,292,9.2,9.2,85,0.00,CLR,,0.12,WeatherDisplay:10.37,2013-01-12 03:16:00,
2013-01-11 22:18:00,44.6,40.4,29.84,WSW,248,8.1,8.1,85,0.00,CLR,,0.12,WeatherDisplay:10.37,2013-01-12 03:18:00,
2013-01-11 22:19:00,44.6,40.4,29.84,WNW,292,9.4,9.4,85,0.00,CLR,,0.12,WeatherDisplay:10.37,2013-01-12 03:19:00,
2013-01-11 22:20:00,44.6,40.4,29.84,WSW,248,9.2,9.2,85,0.00,CLR,,0.12,WeatherDisplay:10.37,2013-01-12 03:20:00,
2013-01-11 22:21:00,44.6,40.4,29.84,West,270,9.2,9.2,85,0.00,CLR,,0.12,WeatherDisplay:10.37,2013-01-12 03:21:00,
2013-01-11 22:24:00,44.6,40.4,29.84,WNW,292,6.9,6.9,85,0.00,CLR,,0.12,WeatherDisplay:10.37,2013-01-12 03:24:00,
2013-01-11 22:25:00,44.6,40.4,29.84,WSW,248,6.0,6.0,85,0.00,CLR,,0.12,WeatherDisplay:10.37,2013-01-12 03:25:00,
2013-01-11 22:27:00,44.6,40.4,29.81,WNW,292,8.1,8.1,85,0.00,CLR,,0.12,WeatherDisplay:10.37,2013-01-12 03:27:00,
2013-01-11 22:29:00,44.6,40.4,29.81,WNW,292,12.7,12.7,85,0.00,CLR,,0.12,WeatherDisplay:10.37,2013-01-12 03:29:00,
2013-01-11 22:30:00,44.4,40.5,29.81,WNW,292,12.7,12.7,86,0.00,CLR,,0.12,WeatherDisplay:10.37,2013-01-12 03:30:00,
2013-01-11 22:31:00,44.4,40.5,29.81,SSE,158,11.5,11.5,86,0.00,CLR,,0.12,WeatherDisplay:10.37,2013-01-12 03:31:00,
2013-01-11 22:32:00,44.4,40.5,29.81,WNW,292,8.1,8.1,86,0.00,CLR,,0.12,WeatherDisplay:10.37,2013-01-12 03:32:00,
2013-01-11 22:34:00,44.2,40.3,29.81,WNW,292,8.1,8.1,86,0.00,CLR,,0.12,WeatherDisplay:10.37,2013-01-12 03:34:00,
2013-01-11 22:35:00,44.2,40.3,29.81,WSW,248,5.8,5.8,86,0.00,CLR,,0.12,WeatherDisplay:10.37,2013-01-12 03:35:00,
2013-01-11 22:36:00,44.2,40.3,29.81,NNW,338,5.8,5.8,86,0.00,CLR,,0.12,WeatherDisplay:10.37,2013-01-12 03:36:00,
2013-01-11 22:37:00,44.2,40.3,29.81,NW,315,8.1,8.1,86,0.00,CLR,,0.12,WeatherDisplay:10.37,2013-01-12 03:37:00,
2013-01-11 22:39:00,44.2,40.3,29.81,WNW,292,8.1,8.1,86,0.00,CLR,,0.12,WeatherDisplay:10.37,2013-01-12 03:39:00,
2013-01-11 22:40:00,44.2,40.3,29.84,North,0,8.1,8.1,86,0.00,CLR,,0.12,WeatherDisplay:10.37,2013-01-12 03:40:00,
2013-01-11 22:42:00,44.2,40.3,29.84,WSW,248,8.1,8.1,86,0.00,CLR,,0.12,WeatherDisplay:10.37,2013-01-12 03:42:00,
2013-01-11 22:44:00,44.2,40.3,29.84,NNW,338,5.8,5.8,86,0.00,CLR,,0.12,WeatherDisplay:10.37,2013-01-12 03:44:00,
2013-01-11 22:46:00,44.2,40.3,29.84,West,270,7.1,7.1,86,0.00,CLR,,0.12,WeatherDisplay:10.37,2013-01-12 03:46:00,
2013-01-11 22:47:00,44.2,40.3,29.84,NNW,338,6.9,6.9,86,0.00,CLR,,0.12,WeatherDisplay:10.37,2013-01-12 03:47:00,
2013-01-11 22:49:00,44.2,40.3,29.84,West,270,9.8,9.8,86,0.00,CLR,,0.12,WeatherDisplay:10.37,2013-01-12 03:49:00,
2013-01-11 22:51:00,44.4,40.8,29.84,WNW,292,9.2,9.2,87,0.00,CLR,,0.12,WeatherDisplay:10.37,2013-01-12 03:51:00,
2013-01-11 22:52:00,44.4,40.8,29.84,NW,315,6.9,6.9,87,0.00,CLR,,0.12,WeatherDisplay:10.37,2013-01-12 03:52:00,
2013-01-11 22:54:00,44.4,40.8,29.84,WNW,292,11.5,11.5,87,0.00,CLR,,0.12,WeatherDisplay:10.37,2013-01-12 03:54:00,
2013-01-11 22:56:00,44.2,40.3,29.84,WNW,292,5.8,5.8,86,0.00,CLR,,0.12,WeatherDisplay:10.37,2013-01-12 03:56:00,
2013-01-11 22:57:00,44.2,40.3,29.84,WSW,248,5.8,5.8,86,0.00,CLR,,0.12,WeatherDisplay:10.37,2013-01-12 03:57:00,
2013-01-11 22:58:00,44.2,40.3,29.84,WNW,292,8.1,8.1,86,0.00,CLR,,0.12,WeatherDisplay:10.37,2013-01-12 03:58:00,
2013-01-11 22:59:00,44.2,40.3,29.84,WNW,292,5.8,5.8,86,0.00,CLR,,0.12,WeatherDisplay:10.37,2013-01-12 03:59:00,
2013-01-11 23:01:00,44.2,40.6,29.84,WNW,292,11.5,11.5,87,0.00,CLR,,0.12,WeatherDisplay:10.37,2013-01-12 04:01:00,
2013-01-11 23:02:00,44.2,40.6,29.84,NNW,338,11.5,11.5,87,0.00,CLR,,0.12,WeatherDisplay:10.37,2013-01-12 04:02:00,
2013-01-11 23:03:00,44.2,40.6,29.84,WSW,248,8.5,8.5,87,0.00,CLR,,0.12,WeatherDisplay:10.37,2013-01-12 04:03:00,
2013-01-11 23:05:00,44.2,40.6,29.84,West,270,8.5,8.5,87,0.00,CLR,,0.12,WeatherDisplay:10.37,2013-01-12 04:05:00,
2013-01-11 23:06:00,44.1,40.4,29.84,NW,315,8.1,8.1,87,0.00,CLR,,0.12,WeatherDisplay:10.37,2013-01-12 04:06:00,
2013-01-11 23:07:00,44.1,40.4,29.84,WNW,292,8.7,8.7,87,0.00,CLR,,0.12,WeatherDisplay:10.37,2013-01-12 04:07:00,
2013-01-11 23:08:00,44.1,40.4,29.84,WSW,248,9.2,9.2,87,0.00,CLR,,0.12,WeatherDisplay:10.37,2013-01-12 04:08:00,
2013-01-11 23:10:00,44.1,40.4,29.84,West,270,8.1,8.1,87,0.00,CLR,,0.12,WeatherDisplay:10.37,2013-01-12 04:10:00,
2013-01-11 23:11:00,44.1,40.4,29.84,West,270,9.2,9.2,87,0.00,CLR,,0.12,WeatherDisplay:10.37,2013-01-12 04:11:00,
2013-01-11 23:12:00,43.9,40.3,29.84,WSW,248,9.2,9.2,87,0.00,CLR,,0.12,WeatherDisplay:10.37,2013-01-12 04:12:00,
2013-01-11 23:13:00,43.9,40.3,29.84,West,270,6.4,6.4,87,0.00,CLR,,0.12,WeatherDisplay:10.37,2013-01-12 04:13:00,
2013-01-11 23:15:00,44.1,40.7,29.84,West,270,9.2,9.2,88,0.00,CLR,,0.12,WeatherDisplay:10.37,2013-01-12 04:15:00,
2013-01-11 23:16:00,43.9,40.6,29.84,West,270,8.1,8.1,88,0.00,CLR,,0.12,WeatherDisplay:10.37,2013-01-12 04:16:00,
2013-01-11 23:18:00,43.9,40.6,29.84,West,270,12.7,12.7,88,0.00,CLR,,0.12,WeatherDisplay:10.37,2013-01-12 04:18:00,
2013-01-11 23:19:00,43.9,40.6,29.84,North,0,12.7,12.7,88,0.00,CLR,,0.12,WeatherDisplay:10.37,2013-01-12 04:19:00,
2013-01-11 23:20:00,43.7,40.4,29.84,WSW,248,6.9,6.9,88,0.00,CLR,,0.12,WeatherDisplay:10.37,2013-01-12 04:20:00,
2013-01-11 23:21:00,43.7,40.1,29.84,West,270,3.5,3.5,87,0.00,CLR,,0.12,WeatherDisplay:10.37,2013-01-12 04:21:00,
2013-01-11 23:23:00,43.7,40.4,29.84,SSW,202,7.8,7.8,88,0.00,CLR,,0.12,WeatherDisplay:10.37,2013-01-12 04:23:00,
2013-01-11 23:24:00,43.9,40.6,29.84,North,0,12.7,12.7,88,0.00,CLR,,0.12,WeatherDisplay:10.37,2013-01-12 04:24:00,
2013-01-11 23:25:00,43.9,40.6,29.84,WSW,248,8.1,8.1,88,0.00,CLR,,0.12,WeatherDisplay:10.37,2013-01-12 04:25:00,
2013-01-11 23:26:00,43.7,40.4,29.84,NW,315,6.2,6.2,88,0.00,CLR,,0.12,WeatherDisplay:10.37,2013-01-12 04:26:00,
2013-01-11 23:28:00,43.7,40.4,29.84,West,270,5.8,5.8,88,0.00,CLR,,0.12,WeatherDisplay:10.37,2013-01-12 04:28:00,
2013-01-11 23:30:00,43.7,40.4,29.84,NNW,338,3.5,3.5,88,0.00,CLR,,0.12,WeatherDisplay:10.37,2013-01-12 04:30:00,
2013-01-11 23:31:00,43.5,40.2,29.84,WSW,248,9.0,9.0,88,0.00,CLR,,0.12,WeatherDisplay:10.37,2013-01-12 04:31:00,
2013-01-11 23:33:00,43.7,40.4,29.84,WSW,248,11.5,11.5,88,0.00,CLR,,0.12,WeatherDisplay:10.37,2013-01-12 04:33:00,
2013-01-11 23:35:00,43.7,40.4,29.84,WNW,292,8.1,8.1,88,0.00,CLR,,0.12,WeatherDisplay:10.37,2013-01-12 04:35:00,
2013-01-11 23:36:00,43.7,40.4,29.84,NW,315,8.1,8.1,88,0.00,CLR,,0.12,WeatherDisplay:10.37,2013-01-12 04:36:00,
2013-01-11 23:38:00,43.7,40.7,29.84,SW,225,9.2,9.2,89,0.00,CLR,,0.12,WeatherDisplay:10.37,2013-01-12 04:38:00,
2013-01-11 23:40:00,43.5,40.5,29.81,West,270,6.9,6.9,89,0.00,CLR,,0.12,WeatherDisplay:10.37,2013-01-12 04:40:00,
2013-01-11 23:41:00,43.5,40.5,29.81,West,270,10.4,10.4,89,0.00,CLR,,0.12,WeatherDisplay:10.37,2013-01-12 04:41:00,
2013-01-11 23:43:00,43.5,40.5,29.81,WNW,292,8.1,8.1,89,0.00,CLR,,0.12,WeatherDisplay:10.37,2013-01-12 04:43:00,
2013-01-11 23:45:00,43.3,40.3,29.81,WNW,292,6.9,6.9,89,0.00,CLR,,0.12,WeatherDisplay:10.37,2013-01-12 04:45:00,
2013-01-11 23:46:00,43.3,40.3,29.81,WNW,292,11.8,11.8,89,0.00,CLR,,0.12,WeatherDisplay:10.37,2013-01-12 04:46:00,
2013-01-11 23:48:00,43.5,40.5,29.81,WSW,248,9.2,9.2,89,0.00,CLR,,0.12,WeatherDisplay:10.37,2013-01-12 04:48:00,
2013-01-11 23:51:00,43.3,40.6,29.81,WNW,292,5.8,5.8,90,0.00,CLR,,0.12,WeatherDisplay:10.37,2013-01-12 04:51:00,
2013-01-11 23:52:00,43.3,40.6,29.81,North,0,5.8,5.8,90,0.00,CLR,,0.12,WeatherDisplay:10.37,2013-01-12 04:52:00,
2013-01-11 23:53:00,43.3,40.6,29.81,WSW,248,5.8,5.8,90,0.00,CLR,,0.12,WeatherDisplay:10.37,2013-01-12 04:53:00,
2013-01-11 23:56:00,43.5,40.8,29.84,NW,315,10.4,10.4,90,0.00,CLR,,0.12,WeatherDisplay:10.37,2013-01-12 04:56:00,
2013-01-11 23:57:00,43.5,40.8,29.84,WNW,292,5.9,5.9,90,0.00,CLR,,0.12,WeatherDisplay:10.37,2013-01-12 04:57:00,
2013-01-11 23:58:00,43.5,40.8,29.84,West,270,6.9,6.9,90,0.00,CLR,,0.12,WeatherDisplay:10.37,2013-01-12 04:58:00,